<?xml version="1.0" encoding="UTF-8" standalone="no" ?>
<gpx xmlns="http://www.topografix.com/GPX/1/1" xmlns:xsi="http://www.w3.org/2001/XMLSchema-instance" xsi:schemaLocation="http://www.topografix.com/GPX/1/1 http://www.topografix.com/GPX/1/1/gpx.xsd" version="1.1" creator="VisuGPX - https://www.visugpx.com">
  <metadata>
    <name>Amange</name>
    <desc><![CDATA[Malgré la grisaille et le terrain humide, de nombreux participants à cette première rando vallonnée]]></desc>
  </metadata>
  <trk>
    <name><![CDATA[amange 3]]></name>
    <trkseg>
      <trkpt lat="47.16572" lon="5.56795">
        <ele>225</ele>
        <time>2012-01-26T13:52:05Z</time>
      </trkpt>
      <trkpt lat="47.16572" lon="5.56796">
        <ele>225</ele>
        <time>2012-01-26T13:53:48Z</time>
      </trkpt>
      <trkpt lat="47.16569" lon="5.56792">
        <ele>226</ele>
        <time>2012-01-26T13:55:38Z</time>
      </trkpt>
      <trkpt lat="47.16565" lon="5.56788">
        <ele>226</ele>
        <time>2012-01-26T13:55:58Z</time>
      </trkpt>
      <trkpt lat="47.16565" lon="5.56782">
        <ele>225</ele>
        <time>2012-01-26T13:56:29Z</time>
      </trkpt>
      <trkpt lat="47.16563" lon="5.56772">
        <ele>225</ele>
        <time>2012-01-26T13:56:42Z</time>
      </trkpt>
      <trkpt lat="47.16554" lon="5.56765">
        <ele>224</ele>
        <time>2012-01-26T13:56:59Z</time>
      </trkpt>
      <trkpt lat="47.16552" lon="5.56765">
        <ele>224</ele>
        <time>2012-01-26T13:57:01Z</time>
      </trkpt>
      <trkpt lat="47.16541" lon="5.56757">
        <ele>224</ele>
        <time>2012-01-26T13:57:11Z</time>
      </trkpt>
      <trkpt lat="47.16535" lon="5.56726">
        <ele>224</ele>
        <time>2012-01-26T13:57:29Z</time>
      </trkpt>
      <trkpt lat="47.16538" lon="5.56686">
        <ele>223</ele>
        <time>2012-01-26T13:57:51Z</time>
      </trkpt>
      <trkpt lat="47.16541" lon="5.56646">
        <ele>222</ele>
        <time>2012-01-26T13:58:10Z</time>
      </trkpt>
      <trkpt lat="47.16544" lon="5.56628">
        <ele>222</ele>
        <time>2012-01-26T13:58:18Z</time>
      </trkpt>
      <trkpt lat="47.1655" lon="5.56602">
        <ele>222</ele>
        <time>2012-01-26T13:58:32Z</time>
      </trkpt>
      <trkpt lat="47.16559" lon="5.56577">
        <ele>223</ele>
        <time>2012-01-26T13:58:49Z</time>
      </trkpt>
      <trkpt lat="47.16564" lon="5.56561">
        <ele>223</ele>
        <time>2012-01-26T13:59:02Z</time>
      </trkpt>
      <trkpt lat="47.16565" lon="5.56551">
        <ele>223</ele>
        <time>2012-01-26T13:59:17Z</time>
      </trkpt>
      <trkpt lat="47.16567" lon="5.56519">
        <ele>223</ele>
        <time>2012-01-26T13:59:35Z</time>
      </trkpt>
      <trkpt lat="47.16558" lon="5.56508">
        <ele>223</ele>
        <time>2012-01-26T13:59:44Z</time>
      </trkpt>
      <trkpt lat="47.16538" lon="5.565">
        <ele>223</ele>
        <time>2012-01-26T14:00:00Z</time>
      </trkpt>
      <trkpt lat="47.16519" lon="5.56489">
        <ele>222</ele>
        <time>2012-01-26T14:00:18Z</time>
      </trkpt>
      <trkpt lat="47.16514" lon="5.56486">
        <ele>222</ele>
        <time>2012-01-26T14:00:22Z</time>
      </trkpt>
      <trkpt lat="47.16496" lon="5.56477">
        <ele>221</ele>
        <time>2012-01-26T14:00:37Z</time>
      </trkpt>
      <trkpt lat="47.16469" lon="5.56472">
        <ele>220</ele>
        <time>2012-01-26T14:00:56Z</time>
      </trkpt>
      <trkpt lat="47.16467" lon="5.56471">
        <ele>220</ele>
        <time>2012-01-26T14:00:57Z</time>
      </trkpt>
      <trkpt lat="47.16456" lon="5.56461">
        <ele>219</ele>
        <time>2012-01-26T14:01:08Z</time>
      </trkpt>
      <trkpt lat="47.16452" lon="5.56455">
        <ele>219</ele>
        <time>2012-01-26T14:01:13Z</time>
      </trkpt>
      <trkpt lat="47.16446" lon="5.56437">
        <ele>218</ele>
        <time>2012-01-26T14:01:22Z</time>
      </trkpt>
      <trkpt lat="47.1646" lon="5.56404">
        <ele>217</ele>
        <time>2012-01-26T14:01:41Z</time>
      </trkpt>
      <trkpt lat="47.16472" lon="5.56376">
        <ele>216</ele>
        <time>2012-01-26T14:01:57Z</time>
      </trkpt>
      <trkpt lat="47.16487" lon="5.56348">
        <ele>216</ele>
        <time>2012-01-26T14:02:15Z</time>
      </trkpt>
      <trkpt lat="47.16499" lon="5.56313">
        <ele>216</ele>
        <time>2012-01-26T14:02:35Z</time>
      </trkpt>
      <trkpt lat="47.16508" lon="5.56272">
        <ele>217</ele>
        <time>2012-01-26T14:02:54Z</time>
      </trkpt>
      <trkpt lat="47.1651" lon="5.5627">
        <ele>217</ele>
        <time>2012-01-26T14:02:57Z</time>
      </trkpt>
      <trkpt lat="47.16516" lon="5.5626">
        <ele>218</ele>
        <time>2012-01-26T14:03:09Z</time>
      </trkpt>
      <trkpt lat="47.16521" lon="5.56255">
        <ele>218</ele>
        <time>2012-01-26T14:03:15Z</time>
      </trkpt>
      <trkpt lat="47.16526" lon="5.56248">
        <ele>219</ele>
        <time>2012-01-26T14:03:21Z</time>
      </trkpt>
      <trkpt lat="47.16534" lon="5.56225">
        <ele>220</ele>
        <time>2012-01-26T14:03:38Z</time>
      </trkpt>
      <trkpt lat="47.16546" lon="5.56196">
        <ele>221</ele>
        <time>2012-01-26T14:03:59Z</time>
      </trkpt>
      <trkpt lat="47.16555" lon="5.56171">
        <ele>222</ele>
        <time>2012-01-26T14:04:15Z</time>
      </trkpt>
      <trkpt lat="47.16562" lon="5.56146">
        <ele>223</ele>
        <time>2012-01-26T14:04:35Z</time>
      </trkpt>
      <trkpt lat="47.1657" lon="5.56128">
        <ele>224</ele>
        <time>2012-01-26T14:04:47Z</time>
      </trkpt>
      <trkpt lat="47.16578" lon="5.56098">
        <ele>225</ele>
        <time>2012-01-26T14:05:05Z</time>
      </trkpt>
      <trkpt lat="47.16588" lon="5.56074">
        <ele>227</ele>
        <time>2012-01-26T14:05:19Z</time>
      </trkpt>
      <trkpt lat="47.16592" lon="5.56068">
        <ele>227</ele>
        <time>2012-01-26T14:05:24Z</time>
      </trkpt>
      <trkpt lat="47.16599" lon="5.56049">
        <ele>228</ele>
        <time>2012-01-26T14:05:39Z</time>
      </trkpt>
      <trkpt lat="47.1661" lon="5.56019">
        <ele>230</ele>
        <time>2012-01-26T14:05:56Z</time>
      </trkpt>
      <trkpt lat="47.16612" lon="5.56014">
        <ele>230</ele>
        <time>2012-01-26T14:05:59Z</time>
      </trkpt>
      <trkpt lat="47.16617" lon="5.56006">
        <ele>230</ele>
        <time>2012-01-26T14:06:06Z</time>
      </trkpt>
      <trkpt lat="47.16627" lon="5.55987">
        <ele>232</ele>
        <time>2012-01-26T14:06:23Z</time>
      </trkpt>
      <trkpt lat="47.1663" lon="5.55981">
        <ele>233</ele>
        <time>2012-01-26T14:06:28Z</time>
      </trkpt>
      <trkpt lat="47.1664" lon="5.55955">
        <ele>235</ele>
        <time>2012-01-26T14:06:48Z</time>
      </trkpt>
      <trkpt lat="47.16643" lon="5.55949">
        <ele>236</ele>
        <time>2012-01-26T14:06:53Z</time>
      </trkpt>
      <trkpt lat="47.16643" lon="5.55947">
        <ele>236</ele>
        <time>2012-01-26T14:06:55Z</time>
      </trkpt>
      <trkpt lat="47.16648" lon="5.55929">
        <ele>238</ele>
        <time>2012-01-26T14:07:10Z</time>
      </trkpt>
      <trkpt lat="47.16654" lon="5.55905">
        <ele>240</ele>
        <time>2012-01-26T14:07:27Z</time>
      </trkpt>
      <trkpt lat="47.16661" lon="5.5588">
        <ele>241</ele>
        <time>2012-01-26T14:07:46Z</time>
      </trkpt>
      <trkpt lat="47.16668" lon="5.55858">
        <ele>243</ele>
        <time>2012-01-26T14:08:03Z</time>
      </trkpt>
      <trkpt lat="47.16675" lon="5.55839">
        <ele>244</ele>
        <time>2012-01-26T14:08:16Z</time>
      </trkpt>
      <trkpt lat="47.16675" lon="5.55821">
        <ele>245</ele>
        <time>2012-01-26T14:08:27Z</time>
      </trkpt>
      <trkpt lat="47.16676" lon="5.55806">
        <ele>246</ele>
        <time>2012-01-26T14:08:35Z</time>
      </trkpt>
      <trkpt lat="47.16677" lon="5.55783">
        <ele>248</ele>
        <time>2012-01-26T14:08:51Z</time>
      </trkpt>
      <trkpt lat="47.16677" lon="5.55776">
        <ele>248</ele>
        <time>2012-01-26T14:08:55Z</time>
      </trkpt>
      <trkpt lat="47.16678" lon="5.55758">
        <ele>249</ele>
        <time>2012-01-26T14:09:08Z</time>
      </trkpt>
      <trkpt lat="47.16679" lon="5.55754">
        <ele>250</ele>
        <time>2012-01-26T14:09:10Z</time>
      </trkpt>
      <trkpt lat="47.1668" lon="5.5574">
        <ele>250</ele>
        <time>2012-01-26T14:09:19Z</time>
      </trkpt>
      <trkpt lat="47.16684" lon="5.55726">
        <ele>251</ele>
        <time>2012-01-26T14:09:26Z</time>
      </trkpt>
      <trkpt lat="47.16689" lon="5.5571">
        <ele>252</ele>
        <time>2012-01-26T14:09:39Z</time>
      </trkpt>
      <trkpt lat="47.16695" lon="5.55682">
        <ele>253</ele>
        <time>2012-01-26T14:09:58Z</time>
      </trkpt>
      <trkpt lat="47.16697" lon="5.55656">
        <ele>255</ele>
        <time>2012-01-26T14:10:14Z</time>
      </trkpt>
      <trkpt lat="47.16706" lon="5.55638">
        <ele>256</ele>
        <time>2012-01-26T14:10:28Z</time>
      </trkpt>
      <trkpt lat="47.16711" lon="5.55608">
        <ele>259</ele>
        <time>2012-01-26T14:10:51Z</time>
      </trkpt>
      <trkpt lat="47.16718" lon="5.55587">
        <ele>261</ele>
        <time>2012-01-26T14:11:09Z</time>
      </trkpt>
      <trkpt lat="47.16724" lon="5.5556">
        <ele>264</ele>
        <time>2012-01-26T14:11:28Z</time>
      </trkpt>
      <trkpt lat="47.16735" lon="5.55537">
        <ele>266</ele>
        <time>2012-01-26T14:11:50Z</time>
      </trkpt>
      <trkpt lat="47.16744" lon="5.55515">
        <ele>269</ele>
        <time>2012-01-26T14:12:13Z</time>
      </trkpt>
      <trkpt lat="47.16753" lon="5.55496">
        <ele>272</ele>
        <time>2012-01-26T14:12:31Z</time>
      </trkpt>
      <trkpt lat="47.16755" lon="5.55469">
        <ele>274</ele>
        <time>2012-01-26T14:12:52Z</time>
      </trkpt>
      <trkpt lat="47.16756" lon="5.55451">
        <ele>277</ele>
        <time>2012-01-26T14:13:10Z</time>
      </trkpt>
      <trkpt lat="47.16763" lon="5.55431">
        <ele>279</ele>
        <time>2012-01-26T14:13:31Z</time>
      </trkpt>
      <trkpt lat="47.16767" lon="5.55409">
        <ele>282</ele>
        <time>2012-01-26T14:13:50Z</time>
      </trkpt>
      <trkpt lat="47.1676" lon="5.55388">
        <ele>283</ele>
        <time>2012-01-26T14:14:08Z</time>
      </trkpt>
      <trkpt lat="47.16753" lon="5.55366">
        <ele>283</ele>
        <time>2012-01-26T14:14:24Z</time>
      </trkpt>
      <trkpt lat="47.16751" lon="5.55365">
        <ele>283</ele>
        <time>2012-01-26T14:14:26Z</time>
      </trkpt>
      <trkpt lat="47.16744" lon="5.55332">
        <ele>284</ele>
        <time>2012-01-26T14:14:48Z</time>
      </trkpt>
      <trkpt lat="47.16732" lon="5.5531">
        <ele>286</ele>
        <time>2012-01-26T14:15:08Z</time>
      </trkpt>
      <trkpt lat="47.1672" lon="5.55291">
        <ele>287</ele>
        <time>2012-01-26T14:15:23Z</time>
      </trkpt>
      <trkpt lat="47.16711" lon="5.5527">
        <ele>288</ele>
        <time>2012-01-26T14:15:37Z</time>
      </trkpt>
      <trkpt lat="47.16712" lon="5.55269">
        <ele>288</ele>
        <time>2012-01-26T14:15:38Z</time>
      </trkpt>
      <trkpt lat="47.16716" lon="5.55242">
        <ele>289</ele>
        <time>2012-01-26T14:15:56Z</time>
      </trkpt>
      <trkpt lat="47.16716" lon="5.55241">
        <ele>290</ele>
        <time>2012-01-26T14:15:57Z</time>
      </trkpt>
      <trkpt lat="47.16715" lon="5.55223">
        <ele>291</ele>
        <time>2012-01-26T14:16:10Z</time>
      </trkpt>
      <trkpt lat="47.16717" lon="5.55216">
        <ele>291</ele>
        <time>2012-01-26T14:16:30Z</time>
      </trkpt>
      <trkpt lat="47.16721" lon="5.55194">
        <ele>294</ele>
        <time>2012-01-26T14:18:26Z</time>
      </trkpt>
      <trkpt lat="47.16727" lon="5.55158">
        <ele>297</ele>
        <time>2012-01-26T14:18:48Z</time>
      </trkpt>
      <trkpt lat="47.16724" lon="5.55139">
        <ele>299</ele>
        <time>2012-01-26T14:19:04Z</time>
      </trkpt>
      <trkpt lat="47.16721" lon="5.55127">
        <ele>301</ele>
        <time>2012-01-26T14:19:18Z</time>
      </trkpt>
      <trkpt lat="47.1672" lon="5.55114">
        <ele>303</ele>
        <time>2012-01-26T14:19:36Z</time>
      </trkpt>
      <trkpt lat="47.16725" lon="5.55098">
        <ele>305</ele>
        <time>2012-01-26T14:19:51Z</time>
      </trkpt>
      <trkpt lat="47.16717" lon="5.55065">
        <ele>308</ele>
        <time>2012-01-26T14:20:15Z</time>
      </trkpt>
      <trkpt lat="47.16718" lon="5.55046">
        <ele>310</ele>
        <time>2012-01-26T14:20:36Z</time>
      </trkpt>
      <trkpt lat="47.1672" lon="5.55031">
        <ele>312</ele>
        <time>2012-01-26T14:20:50Z</time>
      </trkpt>
      <trkpt lat="47.16722" lon="5.55007">
        <ele>315</ele>
        <time>2012-01-26T14:21:12Z</time>
      </trkpt>
      <trkpt lat="47.16722" lon="5.54986">
        <ele>317</ele>
        <time>2012-01-26T14:21:31Z</time>
      </trkpt>
      <trkpt lat="47.16727" lon="5.54974">
        <ele>320</ele>
        <time>2012-01-26T14:21:49Z</time>
      </trkpt>
      <trkpt lat="47.16726" lon="5.5495">
        <ele>321</ele>
        <time>2012-01-26T14:22:07Z</time>
      </trkpt>
      <trkpt lat="47.16726" lon="5.54914">
        <ele>324</ele>
        <time>2012-01-26T14:22:31Z</time>
      </trkpt>
      <trkpt lat="47.16727" lon="5.54885">
        <ele>326</ele>
        <time>2012-01-26T14:22:53Z</time>
      </trkpt>
      <trkpt lat="47.16727" lon="5.54853">
        <ele>329</ele>
        <time>2012-01-26T14:23:16Z</time>
      </trkpt>
      <trkpt lat="47.16733" lon="5.54837">
        <ele>331</ele>
        <time>2012-01-26T14:23:34Z</time>
      </trkpt>
      <trkpt lat="47.16745" lon="5.54824">
        <ele>334</ele>
        <time>2012-01-26T14:23:52Z</time>
      </trkpt>
      <trkpt lat="47.16755" lon="5.54812">
        <ele>336</ele>
        <time>2012-01-26T14:24:11Z</time>
      </trkpt>
      <trkpt lat="47.16771" lon="5.54812">
        <ele>339</ele>
        <time>2012-01-26T14:24:31Z</time>
      </trkpt>
      <trkpt lat="47.16786" lon="5.54806">
        <ele>340</ele>
        <time>2012-01-26T14:24:49Z</time>
      </trkpt>
      <trkpt lat="47.168" lon="5.54803">
        <ele>342</ele>
        <time>2012-01-26T14:25:03Z</time>
      </trkpt>
      <trkpt lat="47.16819" lon="5.54802">
        <ele>342</ele>
        <time>2012-01-26T14:25:19Z</time>
      </trkpt>
      <trkpt lat="47.16834" lon="5.54795">
        <ele>343</ele>
        <time>2012-01-26T14:25:32Z</time>
      </trkpt>
      <trkpt lat="47.16854" lon="5.5479">
        <ele>344</ele>
        <time>2012-01-26T14:25:50Z</time>
      </trkpt>
      <trkpt lat="47.16873" lon="5.54783">
        <ele>344</ele>
        <time>2012-01-26T14:26:09Z</time>
      </trkpt>
      <trkpt lat="47.16898" lon="5.54777">
        <ele>342</ele>
        <time>2012-01-26T14:26:29Z</time>
      </trkpt>
      <trkpt lat="47.16905" lon="5.54776">
        <ele>342</ele>
        <time>2012-01-26T14:26:34Z</time>
      </trkpt>
      <trkpt lat="47.16916" lon="5.54769">
        <ele>341</ele>
        <time>2012-01-26T14:26:47Z</time>
      </trkpt>
      <trkpt lat="47.16928" lon="5.54768">
        <ele>341</ele>
        <time>2012-01-26T14:26:55Z</time>
      </trkpt>
      <trkpt lat="47.16947" lon="5.54762">
        <ele>339</ele>
        <time>2012-01-26T14:27:14Z</time>
      </trkpt>
      <trkpt lat="47.16955" lon="5.54761">
        <ele>339</ele>
        <time>2012-01-26T14:27:19Z</time>
      </trkpt>
      <trkpt lat="47.16986" lon="5.54765">
        <ele>339</ele>
        <time>2012-01-26T14:27:39Z</time>
      </trkpt>
      <trkpt lat="47.16999" lon="5.54773">
        <ele>338</ele>
        <time>2012-01-26T14:27:55Z</time>
      </trkpt>
      <trkpt lat="47.17005" lon="5.54769">
        <ele>338</ele>
        <time>2012-01-26T14:28:05Z</time>
      </trkpt>
      <trkpt lat="47.17013" lon="5.54766">
        <ele>339</ele>
        <time>2012-01-26T14:28:15Z</time>
      </trkpt>
      <trkpt lat="47.17026" lon="5.54757">
        <ele>339</ele>
        <time>2012-01-26T14:28:29Z</time>
      </trkpt>
      <trkpt lat="47.17048" lon="5.54737">
        <ele>341</ele>
        <time>2012-01-26T14:28:53Z</time>
      </trkpt>
      <trkpt lat="47.1705" lon="5.54736">
        <ele>341</ele>
        <time>2012-01-26T14:28:55Z</time>
      </trkpt>
      <trkpt lat="47.17053" lon="5.54733">
        <ele>341</ele>
        <time>2012-01-26T14:28:57Z</time>
      </trkpt>
      <trkpt lat="47.17067" lon="5.54722">
        <ele>343</ele>
        <time>2012-01-26T14:29:16Z</time>
      </trkpt>
      <trkpt lat="47.17082" lon="5.54707">
        <ele>345</ele>
        <time>2012-01-26T14:29:37Z</time>
      </trkpt>
      <trkpt lat="47.171" lon="5.54696">
        <ele>347</ele>
        <time>2012-01-26T14:29:53Z</time>
      </trkpt>
      <trkpt lat="47.17109" lon="5.54685">
        <ele>349</ele>
        <time>2012-01-26T14:30:08Z</time>
      </trkpt>
      <trkpt lat="47.17123" lon="5.54671">
        <ele>351</ele>
        <time>2012-01-26T14:30:27Z</time>
      </trkpt>
      <trkpt lat="47.17141" lon="5.54656">
        <ele>350</ele>
        <time>2012-01-26T14:30:42Z</time>
      </trkpt>
      <trkpt lat="47.17152" lon="5.54642">
        <ele>351</ele>
        <time>2012-01-26T14:30:58Z</time>
      </trkpt>
      <trkpt lat="47.17152" lon="5.54637">
        <ele>350</ele>
        <time>2012-01-26T14:31:01Z</time>
      </trkpt>
      <trkpt lat="47.17159" lon="5.54616">
        <ele>350</ele>
        <time>2012-01-26T14:31:15Z</time>
      </trkpt>
      <trkpt lat="47.1716" lon="5.54612">
        <ele>350</ele>
        <time>2012-01-26T14:31:17Z</time>
      </trkpt>
      <trkpt lat="47.17161" lon="5.54604">
        <ele>350</ele>
        <time>2012-01-26T14:31:21Z</time>
      </trkpt>
      <trkpt lat="47.17166" lon="5.54597">
        <ele>350</ele>
        <time>2012-01-26T14:31:26Z</time>
      </trkpt>
      <trkpt lat="47.17169" lon="5.54575">
        <ele>349</ele>
        <time>2012-01-26T14:31:40Z</time>
      </trkpt>
      <trkpt lat="47.17169" lon="5.54574">
        <ele>349</ele>
        <time>2012-01-26T14:31:41Z</time>
      </trkpt>
      <trkpt lat="47.17177" lon="5.54554">
        <ele>350</ele>
        <time>2012-01-26T14:31:55Z</time>
      </trkpt>
      <trkpt lat="47.1719" lon="5.54538">
        <ele>350</ele>
        <time>2012-01-26T14:32:12Z</time>
      </trkpt>
      <trkpt lat="47.17193" lon="5.5452">
        <ele>350</ele>
        <time>2012-01-26T14:32:26Z</time>
      </trkpt>
      <trkpt lat="47.17196" lon="5.54505">
        <ele>350</ele>
        <time>2012-01-26T14:32:43Z</time>
      </trkpt>
      <trkpt lat="47.17199" lon="5.54494">
        <ele>350</ele>
        <time>2012-01-26T14:32:53Z</time>
      </trkpt>
      <trkpt lat="47.17202" lon="5.54474">
        <ele>351</ele>
        <time>2012-01-26T14:33:09Z</time>
      </trkpt>
      <trkpt lat="47.17207" lon="5.54458">
        <ele>350</ele>
        <time>2012-01-26T14:33:27Z</time>
      </trkpt>
      <trkpt lat="47.17212" lon="5.54457">
        <ele>351</ele>
        <time>2012-01-26T14:33:48Z</time>
      </trkpt>
      <trkpt lat="47.17214" lon="5.54459">
        <ele>351</ele>
        <time>2012-01-26T14:34:11Z</time>
      </trkpt>
      <trkpt lat="47.17208" lon="5.5446">
        <ele>352</ele>
        <time>2012-01-26T14:34:58Z</time>
      </trkpt>
      <trkpt lat="47.1721" lon="5.54458">
        <ele>351</ele>
        <time>2012-01-26T14:35:14Z</time>
      </trkpt>
      <trkpt lat="47.17208" lon="5.54458">
        <ele>352</ele>
        <time>2012-01-26T14:35:45Z</time>
      </trkpt>
      <trkpt lat="47.17207" lon="5.54457">
        <ele>352</ele>
        <time>2012-01-26T14:36:25Z</time>
      </trkpt>
      <trkpt lat="47.1721" lon="5.54458">
        <ele>353</ele>
        <time>2012-01-26T14:37:28Z</time>
      </trkpt>
      <trkpt lat="47.17201" lon="5.5444">
        <ele>352</ele>
        <time>2012-01-26T14:38:38Z</time>
      </trkpt>
      <trkpt lat="47.17192" lon="5.54414">
        <ele>350</ele>
        <time>2012-01-26T14:38:57Z</time>
      </trkpt>
      <trkpt lat="47.17177" lon="5.54395">
        <ele>346</ele>
        <time>2012-01-26T14:39:12Z</time>
      </trkpt>
      <trkpt lat="47.17159" lon="5.54375">
        <ele>346</ele>
        <time>2012-01-26T14:39:30Z</time>
      </trkpt>
      <trkpt lat="47.17139" lon="5.54342">
        <ele>343</ele>
        <time>2012-01-26T14:39:54Z</time>
      </trkpt>
      <trkpt lat="47.17129" lon="5.54324">
        <ele>340</ele>
        <time>2012-01-26T14:40:11Z</time>
      </trkpt>
      <trkpt lat="47.17121" lon="5.54316">
        <ele>338</ele>
        <time>2012-01-26T14:40:19Z</time>
      </trkpt>
      <trkpt lat="47.17105" lon="5.54296">
        <ele>335</ele>
        <time>2012-01-26T14:40:35Z</time>
      </trkpt>
      <trkpt lat="47.17092" lon="5.54279">
        <ele>332</ele>
        <time>2012-01-26T14:40:51Z</time>
      </trkpt>
      <trkpt lat="47.17086" lon="5.54264">
        <ele>328</ele>
        <time>2012-01-26T14:41:08Z</time>
      </trkpt>
      <trkpt lat="47.17084" lon="5.54258">
        <ele>326</ele>
        <time>2012-01-26T14:41:22Z</time>
      </trkpt>
      <trkpt lat="47.17077" lon="5.5424">
        <ele>323</ele>
        <time>2012-01-26T14:41:37Z</time>
      </trkpt>
      <trkpt lat="47.17097" lon="5.54206">
        <ele>320</ele>
        <time>2012-01-26T14:42:12Z</time>
      </trkpt>
      <trkpt lat="47.17105" lon="5.5418">
        <ele>322</ele>
        <time>2012-01-26T14:42:43Z</time>
      </trkpt>
      <trkpt lat="47.17125" lon="5.54162">
        <ele>323</ele>
        <time>2012-01-26T14:43:15Z</time>
      </trkpt>
      <trkpt lat="47.17137" lon="5.54149">
        <ele>320</ele>
        <time>2012-01-26T14:43:35Z</time>
      </trkpt>
      <trkpt lat="47.17141" lon="5.54136">
        <ele>319</ele>
        <time>2012-01-26T14:43:58Z</time>
      </trkpt>
      <trkpt lat="47.17149" lon="5.54129">
        <ele>323</ele>
        <time>2012-01-26T14:44:15Z</time>
      </trkpt>
      <trkpt lat="47.17156" lon="5.5412">
        <ele>326</ele>
        <time>2012-01-26T14:44:33Z</time>
      </trkpt>
      <trkpt lat="47.17167" lon="5.54109">
        <ele>329</ele>
        <time>2012-01-26T14:44:53Z</time>
      </trkpt>
      <trkpt lat="47.17173" lon="5.54094">
        <ele>331</ele>
        <time>2012-01-26T14:45:16Z</time>
      </trkpt>
      <trkpt lat="47.17185" lon="5.54085">
        <ele>334</ele>
        <time>2012-01-26T14:45:35Z</time>
      </trkpt>
      <trkpt lat="47.17191" lon="5.54077">
        <ele>337</ele>
        <time>2012-01-26T14:45:55Z</time>
      </trkpt>
      <trkpt lat="47.17198" lon="5.54064">
        <ele>340</ele>
        <time>2012-01-26T14:46:12Z</time>
      </trkpt>
      <trkpt lat="47.17202" lon="5.54055">
        <ele>341</ele>
        <time>2012-01-26T14:46:20Z</time>
      </trkpt>
      <trkpt lat="47.1721" lon="5.54044">
        <ele>344</ele>
        <time>2012-01-26T14:46:35Z</time>
      </trkpt>
      <trkpt lat="47.17219" lon="5.54027">
        <ele>345</ele>
        <time>2012-01-26T14:46:56Z</time>
      </trkpt>
      <trkpt lat="47.1723" lon="5.54008">
        <ele>347</ele>
        <time>2012-01-26T14:47:08Z</time>
      </trkpt>
      <trkpt lat="47.17239" lon="5.53994">
        <ele>347</ele>
        <time>2012-01-26T14:47:19Z</time>
      </trkpt>
      <trkpt lat="47.17242" lon="5.53987">
        <ele>347</ele>
        <time>2012-01-26T14:47:22Z</time>
      </trkpt>
      <trkpt lat="47.17254" lon="5.53968">
        <ele>347</ele>
        <time>2012-01-26T14:47:36Z</time>
      </trkpt>
      <trkpt lat="47.17267" lon="5.53948">
        <ele>348</ele>
        <time>2012-01-26T14:47:50Z</time>
      </trkpt>
      <trkpt lat="47.17271" lon="5.53943">
        <ele>347</ele>
        <time>2012-01-26T14:47:54Z</time>
      </trkpt>
      <trkpt lat="47.17281" lon="5.53932">
        <ele>346</ele>
        <time>2012-01-26T14:48:03Z</time>
      </trkpt>
      <trkpt lat="47.17292" lon="5.53918">
        <ele>345</ele>
        <time>2012-01-26T14:48:11Z</time>
      </trkpt>
      <trkpt lat="47.17295" lon="5.53914">
        <ele>344</ele>
        <time>2012-01-26T14:48:14Z</time>
      </trkpt>
      <trkpt lat="47.17299" lon="5.539">
        <ele>343</ele>
        <time>2012-01-26T14:48:21Z</time>
      </trkpt>
      <trkpt lat="47.17308" lon="5.53872">
        <ele>340</ele>
        <time>2012-01-26T14:48:38Z</time>
      </trkpt>
      <trkpt lat="47.17311" lon="5.53864">
        <ele>339</ele>
        <time>2012-01-26T14:48:57Z</time>
      </trkpt>
      <trkpt lat="47.17315" lon="5.53852">
        <ele>338</ele>
        <time>2012-01-26T14:49:31Z</time>
      </trkpt>
      <trkpt lat="47.17323" lon="5.53854">
        <ele>341</ele>
        <time>2012-01-26T14:49:44Z</time>
      </trkpt>
      <trkpt lat="47.17331" lon="5.53869">
        <ele>342</ele>
        <time>2012-01-26T14:49:59Z</time>
      </trkpt>
      <trkpt lat="47.17347" lon="5.53885">
        <ele>341</ele>
        <time>2012-01-26T14:50:12Z</time>
      </trkpt>
      <trkpt lat="47.1737" lon="5.53898">
        <ele>343</ele>
        <time>2012-01-26T14:50:33Z</time>
      </trkpt>
      <trkpt lat="47.17382" lon="5.5392">
        <ele>346</ele>
        <time>2012-01-26T14:50:42Z</time>
      </trkpt>
      <trkpt lat="47.1739" lon="5.53937">
        <ele>349</ele>
        <time>2012-01-26T14:50:56Z</time>
      </trkpt>
      <trkpt lat="47.17395" lon="5.53952">
        <ele>352</ele>
        <time>2012-01-26T14:51:11Z</time>
      </trkpt>
      <trkpt lat="47.17409" lon="5.53973">
        <ele>355</ele>
        <time>2012-01-26T14:51:30Z</time>
      </trkpt>
      <trkpt lat="47.17434" lon="5.53998">
        <ele>357</ele>
        <time>2012-01-26T14:51:49Z</time>
      </trkpt>
      <trkpt lat="47.17447" lon="5.54021">
        <ele>358</ele>
        <time>2012-01-26T14:52:08Z</time>
      </trkpt>
      <trkpt lat="47.17472" lon="5.54047">
        <ele>359</ele>
        <time>2012-01-26T14:52:28Z</time>
      </trkpt>
      <trkpt lat="47.17481" lon="5.54068">
        <ele>361</ele>
        <time>2012-01-26T14:52:47Z</time>
      </trkpt>
      <trkpt lat="47.17496" lon="5.54092">
        <ele>362</ele>
        <time>2012-01-26T14:53:05Z</time>
      </trkpt>
      <trkpt lat="47.17517" lon="5.54118">
        <ele>363</ele>
        <time>2012-01-26T14:53:29Z</time>
      </trkpt>
      <trkpt lat="47.17515" lon="5.54121">
        <ele>363</ele>
        <time>2012-01-26T14:54:02Z</time>
      </trkpt>
      <trkpt lat="47.17549" lon="5.54153">
        <ele>364</ele>
        <time>2012-01-26T14:56:14Z</time>
      </trkpt>
      <trkpt lat="47.17568" lon="5.54193">
        <ele>365</ele>
        <time>2012-01-26T14:56:40Z</time>
      </trkpt>
      <trkpt lat="47.17592" lon="5.54229">
        <ele>364</ele>
        <time>2012-01-26T14:57:04Z</time>
      </trkpt>
      <trkpt lat="47.17619" lon="5.54264">
        <ele>362</ele>
        <time>2012-01-26T14:57:31Z</time>
      </trkpt>
      <trkpt lat="47.17637" lon="5.54291">
        <ele>359</ele>
        <time>2012-01-26T14:57:53Z</time>
      </trkpt>
      <trkpt lat="47.17656" lon="5.54322">
        <ele>355</ele>
        <time>2012-01-26T14:58:14Z</time>
      </trkpt>
      <trkpt lat="47.17673" lon="5.54344">
        <ele>352</ele>
        <time>2012-01-26T14:58:35Z</time>
      </trkpt>
      <trkpt lat="47.17683" lon="5.54375">
        <ele>349</ele>
        <time>2012-01-26T14:58:57Z</time>
      </trkpt>
      <trkpt lat="47.17692" lon="5.54393">
        <ele>348</ele>
        <time>2012-01-26T14:59:21Z</time>
      </trkpt>
      <trkpt lat="47.17722" lon="5.544">
        <ele>346</ele>
        <time>2012-01-26T14:59:50Z</time>
      </trkpt>
      <trkpt lat="47.1774" lon="5.54426">
        <ele>350</ele>
        <time>2012-01-26T15:00:18Z</time>
      </trkpt>
      <trkpt lat="47.17744" lon="5.54434">
        <ele>353</ele>
        <time>2012-01-26T15:00:35Z</time>
      </trkpt>
      <trkpt lat="47.17745" lon="5.54437">
        <ele>356</ele>
        <time>2012-01-26T15:00:47Z</time>
      </trkpt>
      <trkpt lat="47.1776" lon="5.54456">
        <ele>358</ele>
        <time>2012-01-26T15:01:09Z</time>
      </trkpt>
      <trkpt lat="47.17776" lon="5.54484">
        <ele>358</ele>
        <time>2012-01-26T15:01:33Z</time>
      </trkpt>
      <trkpt lat="47.17796" lon="5.54506">
        <ele>358</ele>
        <time>2012-01-26T15:01:51Z</time>
      </trkpt>
      <trkpt lat="47.17816" lon="5.54529">
        <ele>358</ele>
        <time>2012-01-26T15:02:12Z</time>
      </trkpt>
      <trkpt lat="47.17829" lon="5.54543">
        <ele>360</ele>
        <time>2012-01-26T15:02:27Z</time>
      </trkpt>
      <trkpt lat="47.17841" lon="5.54563">
        <ele>361</ele>
        <time>2012-01-26T15:02:46Z</time>
      </trkpt>
      <trkpt lat="47.17856" lon="5.54571">
        <ele>361</ele>
        <time>2012-01-26T15:03:00Z</time>
      </trkpt>
      <trkpt lat="47.17872" lon="5.5458">
        <ele>362</ele>
        <time>2012-01-26T15:03:16Z</time>
      </trkpt>
      <trkpt lat="47.17872" lon="5.54584">
        <ele>362</ele>
        <time>2012-01-26T15:03:18Z</time>
      </trkpt>
      <trkpt lat="47.17888" lon="5.5461">
        <ele>361</ele>
        <time>2012-01-26T15:03:37Z</time>
      </trkpt>
      <trkpt lat="47.17899" lon="5.54622">
        <ele>360</ele>
        <time>2012-01-26T15:03:53Z</time>
      </trkpt>
      <trkpt lat="47.17909" lon="5.54642">
        <ele>358</ele>
        <time>2012-01-26T15:04:12Z</time>
      </trkpt>
      <trkpt lat="47.17912" lon="5.54663">
        <ele>356</ele>
        <time>2012-01-26T15:04:28Z</time>
      </trkpt>
      <trkpt lat="47.17932" lon="5.54687">
        <ele>353</ele>
        <time>2012-01-26T15:05:00Z</time>
      </trkpt>
      <trkpt lat="47.17943" lon="5.54704">
        <ele>352</ele>
        <time>2012-01-26T15:05:21Z</time>
      </trkpt>
      <trkpt lat="47.17949" lon="5.54709">
        <ele>353</ele>
        <time>2012-01-26T15:05:41Z</time>
      </trkpt>
      <trkpt lat="47.17961" lon="5.5471">
        <ele>356</ele>
        <time>2012-01-26T15:05:53Z</time>
      </trkpt>
      <trkpt lat="47.17979" lon="5.54728">
        <ele>359</ele>
        <time>2012-01-26T15:06:12Z</time>
      </trkpt>
      <trkpt lat="47.17998" lon="5.5475">
        <ele>361</ele>
        <time>2012-01-26T15:06:30Z</time>
      </trkpt>
      <trkpt lat="47.18025" lon="5.54779">
        <ele>362</ele>
        <time>2012-01-26T15:06:56Z</time>
      </trkpt>
      <trkpt lat="47.18054" lon="5.54821">
        <ele>363</ele>
        <time>2012-01-26T15:07:26Z</time>
      </trkpt>
      <trkpt lat="47.18074" lon="5.54841">
        <ele>364</ele>
        <time>2012-01-26T15:07:45Z</time>
      </trkpt>
      <trkpt lat="47.18089" lon="5.54855">
        <ele>365</ele>
        <time>2012-01-26T15:08:03Z</time>
      </trkpt>
      <trkpt lat="47.18108" lon="5.54875">
        <ele>367</ele>
        <time>2012-01-26T15:08:24Z</time>
      </trkpt>
      <trkpt lat="47.18116" lon="5.54896">
        <ele>367</ele>
        <time>2012-01-26T15:08:42Z</time>
      </trkpt>
      <trkpt lat="47.18124" lon="5.54902">
        <ele>367</ele>
        <time>2012-01-26T15:09:03Z</time>
      </trkpt>
      <trkpt lat="47.18128" lon="5.54895">
        <ele>367</ele>
        <time>2012-01-26T15:09:53Z</time>
      </trkpt>
      <trkpt lat="47.18145" lon="5.54917">
        <ele>367</ele>
        <time>2012-01-26T15:11:30Z</time>
      </trkpt>
      <trkpt lat="47.18172" lon="5.54955">
        <ele>367</ele>
        <time>2012-01-26T15:12:09Z</time>
      </trkpt>
      <trkpt lat="47.1819" lon="5.5498">
        <ele>366</ele>
        <time>2012-01-26T15:12:32Z</time>
      </trkpt>
      <trkpt lat="47.18211" lon="5.55003">
        <ele>364</ele>
        <time>2012-01-26T15:12:54Z</time>
      </trkpt>
      <trkpt lat="47.18228" lon="5.55026">
        <ele>363</ele>
        <time>2012-01-26T15:13:16Z</time>
      </trkpt>
      <trkpt lat="47.18241" lon="5.55038">
        <ele>359</ele>
        <time>2012-01-26T15:13:33Z</time>
      </trkpt>
      <trkpt lat="47.18251" lon="5.55052">
        <ele>356</ele>
        <time>2012-01-26T15:13:49Z</time>
      </trkpt>
      <trkpt lat="47.18255" lon="5.55062">
        <ele>353</ele>
        <time>2012-01-26T15:14:08Z</time>
      </trkpt>
      <trkpt lat="47.18257" lon="5.5507">
        <ele>350</ele>
        <time>2012-01-26T15:14:21Z</time>
      </trkpt>
      <trkpt lat="47.18263" lon="5.5507">
        <ele>347</ele>
        <time>2012-01-26T15:14:34Z</time>
      </trkpt>
      <trkpt lat="47.18274" lon="5.55079">
        <ele>344</ele>
        <time>2012-01-26T15:14:54Z</time>
      </trkpt>
      <trkpt lat="47.18287" lon="5.55074">
        <ele>345</ele>
        <time>2012-01-26T15:15:15Z</time>
      </trkpt>
      <trkpt lat="47.18297" lon="5.55081">
        <ele>345</ele>
        <time>2012-01-26T15:15:34Z</time>
      </trkpt>
      <trkpt lat="47.18311" lon="5.551">
        <ele>346</ele>
        <time>2012-01-26T15:15:52Z</time>
      </trkpt>
      <trkpt lat="47.18321" lon="5.55127">
        <ele>350</ele>
        <time>2012-01-26T15:16:14Z</time>
      </trkpt>
      <trkpt lat="47.18341" lon="5.55157">
        <ele>352</ele>
        <time>2012-01-26T15:16:34Z</time>
      </trkpt>
      <trkpt lat="47.18356" lon="5.55175">
        <ele>353</ele>
        <time>2012-01-26T15:16:55Z</time>
      </trkpt>
      <trkpt lat="47.18376" lon="5.55201">
        <ele>356</ele>
        <time>2012-01-26T15:17:23Z</time>
      </trkpt>
      <trkpt lat="47.18393" lon="5.55223">
        <ele>358</ele>
        <time>2012-01-26T15:17:42Z</time>
      </trkpt>
      <trkpt lat="47.1841" lon="5.55239">
        <ele>360</ele>
        <time>2012-01-26T15:18:01Z</time>
      </trkpt>
      <trkpt lat="47.18431" lon="5.55265">
        <ele>362</ele>
        <time>2012-01-26T15:18:22Z</time>
      </trkpt>
      <trkpt lat="47.18447" lon="5.55288">
        <ele>363</ele>
        <time>2012-01-26T15:18:39Z</time>
      </trkpt>
      <trkpt lat="47.18461" lon="5.55306">
        <ele>364</ele>
        <time>2012-01-26T15:18:57Z</time>
      </trkpt>
      <trkpt lat="47.18478" lon="5.55326">
        <ele>365</ele>
        <time>2012-01-26T15:19:14Z</time>
      </trkpt>
      <trkpt lat="47.185" lon="5.55357">
        <ele>365</ele>
        <time>2012-01-26T15:19:37Z</time>
      </trkpt>
      <trkpt lat="47.18517" lon="5.55367">
        <ele>367</ele>
        <time>2012-01-26T15:19:58Z</time>
      </trkpt>
      <trkpt lat="47.18518" lon="5.55365">
        <ele>367</ele>
        <time>2012-01-26T15:20:00Z</time>
      </trkpt>
      <trkpt lat="47.18536" lon="5.55352">
        <ele>368</ele>
        <time>2012-01-26T15:20:17Z</time>
      </trkpt>
      <trkpt lat="47.18563" lon="5.55333">
        <ele>370</ele>
        <time>2012-01-26T15:20:39Z</time>
      </trkpt>
      <trkpt lat="47.18576" lon="5.55308">
        <ele>371</ele>
        <time>2012-01-26T15:20:58Z</time>
      </trkpt>
      <trkpt lat="47.18594" lon="5.55287">
        <ele>372</ele>
        <time>2012-01-26T15:21:14Z</time>
      </trkpt>
      <trkpt lat="47.18605" lon="5.55275">
        <ele>372</ele>
        <time>2012-01-26T15:21:24Z</time>
      </trkpt>
      <trkpt lat="47.18617" lon="5.55253">
        <ele>372</ele>
        <time>2012-01-26T15:21:39Z</time>
      </trkpt>
      <trkpt lat="47.18622" lon="5.55241">
        <ele>372</ele>
        <time>2012-01-26T15:21:48Z</time>
      </trkpt>
      <trkpt lat="47.18637" lon="5.55221">
        <ele>374</ele>
        <time>2012-01-26T15:22:09Z</time>
      </trkpt>
      <trkpt lat="47.1865" lon="5.55203">
        <ele>376</ele>
        <time>2012-01-26T15:22:24Z</time>
      </trkpt>
      <trkpt lat="47.18667" lon="5.55172">
        <ele>378</ele>
        <time>2012-01-26T15:22:47Z</time>
      </trkpt>
      <trkpt lat="47.18667" lon="5.55146">
        <ele>380</ele>
        <time>2012-01-26T15:23:06Z</time>
      </trkpt>
      <trkpt lat="47.18666" lon="5.55141">
        <ele>380</ele>
        <time>2012-01-26T15:23:09Z</time>
      </trkpt>
      <trkpt lat="47.18662" lon="5.55105">
        <ele>381</ele>
        <time>2012-01-26T15:23:28Z</time>
      </trkpt>
      <trkpt lat="47.18661" lon="5.55095">
        <ele>381</ele>
        <time>2012-01-26T15:23:35Z</time>
      </trkpt>
      <trkpt lat="47.18655" lon="5.55068">
        <ele>381</ele>
        <time>2012-01-26T15:23:53Z</time>
      </trkpt>
      <trkpt lat="47.18652" lon="5.55048">
        <ele>382</ele>
        <time>2012-01-26T15:24:16Z</time>
      </trkpt>
      <trkpt lat="47.18642" lon="5.55032">
        <ele>382</ele>
        <time>2012-01-26T15:24:58Z</time>
      </trkpt>
      <trkpt lat="47.18641" lon="5.55031">
        <ele>382</ele>
        <time>2012-01-26T15:26:16Z</time>
      </trkpt>
      <trkpt lat="47.18644" lon="5.55028">
        <ele>382</ele>
        <time>2012-01-26T15:26:27Z</time>
      </trkpt>
      <trkpt lat="47.18655" lon="5.55021">
        <ele>382</ele>
        <time>2012-01-26T15:26:40Z</time>
      </trkpt>
      <trkpt lat="47.18659" lon="5.55002">
        <ele>382</ele>
        <time>2012-01-26T15:26:58Z</time>
      </trkpt>
      <trkpt lat="47.18668" lon="5.54982">
        <ele>382</ele>
        <time>2012-01-26T15:27:19Z</time>
      </trkpt>
      <trkpt lat="47.1867" lon="5.54965">
        <ele>381</ele>
        <time>2012-01-26T15:27:32Z</time>
      </trkpt>
      <trkpt lat="47.18672" lon="5.54955">
        <ele>381</ele>
        <time>2012-01-26T15:27:47Z</time>
      </trkpt>
      <trkpt lat="47.18677" lon="5.54942">
        <ele>380</ele>
        <time>2012-01-26T15:28:10Z</time>
      </trkpt>
      <trkpt lat="47.18684" lon="5.54934">
        <ele>380</ele>
        <time>2012-01-26T15:28:35Z</time>
      </trkpt>
      <trkpt lat="47.18686" lon="5.54929">
        <ele>379</ele>
        <time>2012-01-26T15:29:32Z</time>
      </trkpt>
      <trkpt lat="47.18695" lon="5.54934">
        <ele>378</ele>
        <time>2012-01-26T15:30:13Z</time>
      </trkpt>
      <trkpt lat="47.1871" lon="5.54932">
        <ele>377</ele>
        <time>2012-01-26T15:30:31Z</time>
      </trkpt>
      <trkpt lat="47.18725" lon="5.54942">
        <ele>376</ele>
        <time>2012-01-26T15:30:47Z</time>
      </trkpt>
      <trkpt lat="47.18731" lon="5.54961">
        <ele>376</ele>
        <time>2012-01-26T15:31:03Z</time>
      </trkpt>
      <trkpt lat="47.18732" lon="5.54988">
        <ele>377</ele>
        <time>2012-01-26T15:31:20Z</time>
      </trkpt>
      <trkpt lat="47.18742" lon="5.55027">
        <ele>378</ele>
        <time>2012-01-26T15:31:44Z</time>
      </trkpt>
      <trkpt lat="47.18745" lon="5.55057">
        <ele>378</ele>
        <time>2012-01-26T15:32:01Z</time>
      </trkpt>
      <trkpt lat="47.18751" lon="5.55076">
        <ele>378</ele>
        <time>2012-01-26T15:32:18Z</time>
      </trkpt>
      <trkpt lat="47.18755" lon="5.55096">
        <ele>378</ele>
        <time>2012-01-26T15:32:33Z</time>
      </trkpt>
      <trkpt lat="47.18773" lon="5.55118">
        <ele>376</ele>
        <time>2012-01-26T15:32:51Z</time>
      </trkpt>
      <trkpt lat="47.1879" lon="5.55131">
        <ele>376</ele>
        <time>2012-01-26T15:33:11Z</time>
      </trkpt>
      <trkpt lat="47.18817" lon="5.55134">
        <ele>376</ele>
        <time>2012-01-26T15:33:30Z</time>
      </trkpt>
      <trkpt lat="47.1882" lon="5.55117">
        <ele>373</ele>
        <time>2012-01-26T15:33:47Z</time>
      </trkpt>
      <trkpt lat="47.18831" lon="5.55107">
        <ele>372</ele>
        <time>2012-01-26T15:34:01Z</time>
      </trkpt>
      <trkpt lat="47.18843" lon="5.55106">
        <ele>371</ele>
        <time>2012-01-26T15:34:19Z</time>
      </trkpt>
      <trkpt lat="47.18854" lon="5.55125">
        <ele>370</ele>
        <time>2012-01-26T15:34:40Z</time>
      </trkpt>
      <trkpt lat="47.1887" lon="5.5512">
        <ele>367</ele>
        <time>2012-01-26T15:34:58Z</time>
      </trkpt>
      <trkpt lat="47.18862" lon="5.55098">
        <ele>366</ele>
        <time>2012-01-26T15:35:20Z</time>
      </trkpt>
      <trkpt lat="47.18859" lon="5.55084">
        <ele>364</ele>
        <time>2012-01-26T15:35:38Z</time>
      </trkpt>
      <trkpt lat="47.18844" lon="5.55068">
        <ele>363</ele>
        <time>2012-01-26T15:35:54Z</time>
      </trkpt>
      <trkpt lat="47.1882" lon="5.55065">
        <ele>361</ele>
        <time>2012-01-26T15:36:15Z</time>
      </trkpt>
      <trkpt lat="47.18788" lon="5.55052">
        <ele>362</ele>
        <time>2012-01-26T15:36:28Z</time>
      </trkpt>
      <trkpt lat="47.18779" lon="5.55035">
        <ele>364</ele>
        <time>2012-01-26T15:36:46Z</time>
      </trkpt>
      <trkpt lat="47.18788" lon="5.55019">
        <ele>365</ele>
        <time>2012-01-26T15:37:05Z</time>
      </trkpt>
      <trkpt lat="47.1879" lon="5.55011">
        <ele>365</ele>
        <time>2012-01-26T15:37:27Z</time>
      </trkpt>
      <trkpt lat="47.1877" lon="5.55018">
        <ele>366</ele>
        <time>2012-01-26T15:38:43Z</time>
      </trkpt>
      <trkpt lat="47.1877" lon="5.55028">
        <ele>366</ele>
        <time>2012-01-26T15:47:04Z</time>
      </trkpt>
      <trkpt lat="47.18788" lon="5.55046">
        <ele>364</ele>
        <time>2012-01-26T15:47:26Z</time>
      </trkpt>
      <trkpt lat="47.18789" lon="5.55047">
        <ele>364</ele>
        <time>2012-01-26T15:47:27Z</time>
      </trkpt>
      <trkpt lat="47.18812" lon="5.5506">
        <ele>363</ele>
        <time>2012-01-26T15:47:48Z</time>
      </trkpt>
      <trkpt lat="47.18824" lon="5.55049">
        <ele>363</ele>
        <time>2012-01-26T15:48:03Z</time>
      </trkpt>
      <trkpt lat="47.18829" lon="5.55034">
        <ele>362</ele>
        <time>2012-01-26T15:48:14Z</time>
      </trkpt>
      <trkpt lat="47.18849" lon="5.55015">
        <ele>358</ele>
        <time>2012-01-26T15:48:35Z</time>
      </trkpt>
      <trkpt lat="47.18868" lon="5.55006">
        <ele>357</ele>
        <time>2012-01-26T15:48:50Z</time>
      </trkpt>
      <trkpt lat="47.18886" lon="5.54987">
        <ele>354</ele>
        <time>2012-01-26T15:49:07Z</time>
      </trkpt>
      <trkpt lat="47.18901" lon="5.54976">
        <ele>352</ele>
        <time>2012-01-26T15:49:25Z</time>
      </trkpt>
      <trkpt lat="47.18915" lon="5.54954">
        <ele>349</ele>
        <time>2012-01-26T15:49:41Z</time>
      </trkpt>
      <trkpt lat="47.18926" lon="5.54938">
        <ele>346</ele>
        <time>2012-01-26T15:49:58Z</time>
      </trkpt>
      <trkpt lat="47.18946" lon="5.54937">
        <ele>345</ele>
        <time>2012-01-26T15:50:22Z</time>
      </trkpt>
      <trkpt lat="47.18945" lon="5.54936">
        <ele>348</ele>
        <time>2012-01-26T15:50:38Z</time>
      </trkpt>
      <trkpt lat="47.18947" lon="5.5493">
        <ele>351</ele>
        <time>2012-01-26T15:50:50Z</time>
      </trkpt>
      <trkpt lat="47.18953" lon="5.54923">
        <ele>353</ele>
        <time>2012-01-26T15:51:00Z</time>
      </trkpt>
      <trkpt lat="47.1897" lon="5.54917">
        <ele>354</ele>
        <time>2012-01-26T15:51:17Z</time>
      </trkpt>
      <trkpt lat="47.1898" lon="5.54901">
        <ele>353</ele>
        <time>2012-01-26T15:51:31Z</time>
      </trkpt>
      <trkpt lat="47.18992" lon="5.5489">
        <ele>352</ele>
        <time>2012-01-26T15:51:44Z</time>
      </trkpt>
      <trkpt lat="47.19001" lon="5.54885">
        <ele>351</ele>
        <time>2012-01-26T15:51:51Z</time>
      </trkpt>
      <trkpt lat="47.19014" lon="5.54871">
        <ele>349</ele>
        <time>2012-01-26T15:52:06Z</time>
      </trkpt>
      <trkpt lat="47.19027" lon="5.54859">
        <ele>347</ele>
        <time>2012-01-26T15:52:20Z</time>
      </trkpt>
      <trkpt lat="47.19039" lon="5.5485">
        <ele>346</ele>
        <time>2012-01-26T15:52:32Z</time>
      </trkpt>
      <trkpt lat="47.19052" lon="5.54836">
        <ele>344</ele>
        <time>2012-01-26T15:52:48Z</time>
      </trkpt>
      <trkpt lat="47.19068" lon="5.5482">
        <ele>341</ele>
        <time>2012-01-26T15:53:05Z</time>
      </trkpt>
      <trkpt lat="47.19083" lon="5.54832">
        <ele>343</ele>
        <time>2012-01-26T15:53:22Z</time>
      </trkpt>
      <trkpt lat="47.19091" lon="5.54851">
        <ele>345</ele>
        <time>2012-01-26T15:53:37Z</time>
      </trkpt>
      <trkpt lat="47.19097" lon="5.54865">
        <ele>345</ele>
        <time>2012-01-26T15:53:44Z</time>
      </trkpt>
      <trkpt lat="47.19101" lon="5.5487">
        <ele>346</ele>
        <time>2012-01-26T15:53:48Z</time>
      </trkpt>
      <trkpt lat="47.19106" lon="5.54887">
        <ele>347</ele>
        <time>2012-01-26T15:54:00Z</time>
      </trkpt>
      <trkpt lat="47.19106" lon="5.5489">
        <ele>348</ele>
        <time>2012-01-26T15:54:02Z</time>
      </trkpt>
      <trkpt lat="47.19116" lon="5.54899">
        <ele>349</ele>
        <time>2012-01-26T15:54:08Z</time>
      </trkpt>
      <trkpt lat="47.19118" lon="5.54907">
        <ele>349</ele>
        <time>2012-01-26T15:54:13Z</time>
      </trkpt>
      <trkpt lat="47.19118" lon="5.54916">
        <ele>349</ele>
        <time>2012-01-26T15:54:19Z</time>
      </trkpt>
      <trkpt lat="47.19133" lon="5.54943">
        <ele>350</ele>
        <time>2012-01-26T15:54:38Z</time>
      </trkpt>
      <trkpt lat="47.19141" lon="5.54969">
        <ele>352</ele>
        <time>2012-01-26T15:54:56Z</time>
      </trkpt>
      <trkpt lat="47.19151" lon="5.54996">
        <ele>355</ele>
        <time>2012-01-26T15:55:17Z</time>
      </trkpt>
      <trkpt lat="47.1916" lon="5.55006">
        <ele>356</ele>
        <time>2012-01-26T15:55:25Z</time>
      </trkpt>
      <trkpt lat="47.19165" lon="5.55022">
        <ele>358</ele>
        <time>2012-01-26T15:55:37Z</time>
      </trkpt>
      <trkpt lat="47.19173" lon="5.55049">
        <ele>360</ele>
        <time>2012-01-26T15:55:56Z</time>
      </trkpt>
      <trkpt lat="47.19177" lon="5.55073">
        <ele>361</ele>
        <time>2012-01-26T15:56:19Z</time>
      </trkpt>
      <trkpt lat="47.19196" lon="5.55104">
        <ele>364</ele>
        <time>2012-01-26T15:56:40Z</time>
      </trkpt>
      <trkpt lat="47.19206" lon="5.55131">
        <ele>364</ele>
        <time>2012-01-26T15:57:00Z</time>
      </trkpt>
      <trkpt lat="47.19232" lon="5.55162">
        <ele>365</ele>
        <time>2012-01-26T15:57:23Z</time>
      </trkpt>
      <trkpt lat="47.19236" lon="5.55167">
        <ele>364</ele>
        <time>2012-01-26T15:57:27Z</time>
      </trkpt>
      <trkpt lat="47.19253" lon="5.55192">
        <ele>365</ele>
        <time>2012-01-26T15:57:51Z</time>
      </trkpt>
      <trkpt lat="47.19265" lon="5.55213">
        <ele>365</ele>
        <time>2012-01-26T15:58:13Z</time>
      </trkpt>
      <trkpt lat="47.1927" lon="5.55231">
        <ele>365</ele>
        <time>2012-01-26T15:58:34Z</time>
      </trkpt>
      <trkpt lat="47.1928" lon="5.55251">
        <ele>366</ele>
        <time>2012-01-26T15:58:53Z</time>
      </trkpt>
      <trkpt lat="47.19286" lon="5.55259">
        <ele>366</ele>
        <time>2012-01-26T15:59:01Z</time>
      </trkpt>
      <trkpt lat="47.1929" lon="5.55278">
        <ele>366</ele>
        <time>2012-01-26T15:59:14Z</time>
      </trkpt>
      <trkpt lat="47.19299" lon="5.55289">
        <ele>366</ele>
        <time>2012-01-26T15:59:23Z</time>
      </trkpt>
      <trkpt lat="47.19316" lon="5.55318">
        <ele>367</ele>
        <time>2012-01-26T15:59:47Z</time>
      </trkpt>
      <trkpt lat="47.19322" lon="5.55326">
        <ele>367</ele>
        <time>2012-01-26T15:59:53Z</time>
      </trkpt>
      <trkpt lat="47.19346" lon="5.55354">
        <ele>366</ele>
        <time>2012-01-26T16:00:13Z</time>
      </trkpt>
      <trkpt lat="47.19349" lon="5.55361">
        <ele>366</ele>
        <time>2012-01-26T16:00:17Z</time>
      </trkpt>
      <trkpt lat="47.19358" lon="5.55377">
        <ele>365</ele>
        <time>2012-01-26T16:00:27Z</time>
      </trkpt>
      <trkpt lat="47.19368" lon="5.55399">
        <ele>364</ele>
        <time>2012-01-26T16:00:44Z</time>
      </trkpt>
      <trkpt lat="47.19377" lon="5.55421">
        <ele>364</ele>
        <time>2012-01-26T16:01:02Z</time>
      </trkpt>
      <trkpt lat="47.19377" lon="5.55441">
        <ele>363</ele>
        <time>2012-01-26T16:01:17Z</time>
      </trkpt>
      <trkpt lat="47.19379" lon="5.55457">
        <ele>363</ele>
        <time>2012-01-26T16:01:26Z</time>
      </trkpt>
      <trkpt lat="47.1939" lon="5.55475">
        <ele>361</ele>
        <time>2012-01-26T16:01:42Z</time>
      </trkpt>
      <trkpt lat="47.19393" lon="5.55481">
        <ele>361</ele>
        <time>2012-01-26T16:01:45Z</time>
      </trkpt>
      <trkpt lat="47.19395" lon="5.55486">
        <ele>360</ele>
        <time>2012-01-26T16:01:51Z</time>
      </trkpt>
      <trkpt lat="47.19412" lon="5.55498">
        <ele>358</ele>
        <time>2012-01-26T16:02:05Z</time>
      </trkpt>
      <trkpt lat="47.19428" lon="5.55498">
        <ele>355</ele>
        <time>2012-01-26T16:02:20Z</time>
      </trkpt>
      <trkpt lat="47.19447" lon="5.55507">
        <ele>353</ele>
        <time>2012-01-26T16:02:39Z</time>
      </trkpt>
      <trkpt lat="47.19451" lon="5.55519">
        <ele>352</ele>
        <time>2012-01-26T16:02:59Z</time>
      </trkpt>
      <trkpt lat="47.19463" lon="5.55534">
        <ele>349</ele>
        <time>2012-01-26T16:03:23Z</time>
      </trkpt>
      <trkpt lat="47.19475" lon="5.55553">
        <ele>347</ele>
        <time>2012-01-26T16:03:47Z</time>
      </trkpt>
      <trkpt lat="47.19477" lon="5.55555">
        <ele>343</ele>
        <time>2012-01-26T16:04:16Z</time>
      </trkpt>
      <trkpt lat="47.19479" lon="5.55561">
        <ele>340</ele>
        <time>2012-01-26T16:04:31Z</time>
      </trkpt>
      <trkpt lat="47.19482" lon="5.55565">
        <ele>338</ele>
        <time>2012-01-26T16:04:39Z</time>
      </trkpt>
      <trkpt lat="47.19485" lon="5.55578">
        <ele>334</ele>
        <time>2012-01-26T16:04:51Z</time>
      </trkpt>
      <trkpt lat="47.19488" lon="5.55585">
        <ele>334</ele>
        <time>2012-01-26T16:04:54Z</time>
      </trkpt>
      <trkpt lat="47.19495" lon="5.55591">
        <ele>333</ele>
        <time>2012-01-26T16:05:00Z</time>
      </trkpt>
      <trkpt lat="47.19501" lon="5.55608">
        <ele>334</ele>
        <time>2012-01-26T16:05:14Z</time>
      </trkpt>
      <trkpt lat="47.19511" lon="5.55626">
        <ele>338</ele>
        <time>2012-01-26T16:05:30Z</time>
      </trkpt>
      <trkpt lat="47.19508" lon="5.55647">
        <ele>340</ele>
        <time>2012-01-26T16:05:48Z</time>
      </trkpt>
      <trkpt lat="47.19515" lon="5.55672">
        <ele>342</ele>
        <time>2012-01-26T16:06:08Z</time>
      </trkpt>
      <trkpt lat="47.19517" lon="5.557">
        <ele>345</ele>
        <time>2012-01-26T16:06:29Z</time>
      </trkpt>
      <trkpt lat="47.19527" lon="5.55723">
        <ele>345</ele>
        <time>2012-01-26T16:06:47Z</time>
      </trkpt>
      <trkpt lat="47.19523" lon="5.55743">
        <ele>344</ele>
        <time>2012-01-26T16:07:07Z</time>
      </trkpt>
      <trkpt lat="47.19529" lon="5.55772">
        <ele>342</ele>
        <time>2012-01-26T16:07:32Z</time>
      </trkpt>
      <trkpt lat="47.19532" lon="5.5578">
        <ele>341</ele>
        <time>2012-01-26T16:07:37Z</time>
      </trkpt>
      <trkpt lat="47.19548" lon="5.55797">
        <ele>340</ele>
        <time>2012-01-26T16:07:48Z</time>
      </trkpt>
      <trkpt lat="47.19552" lon="5.55807">
        <ele>339</ele>
        <time>2012-01-26T16:07:55Z</time>
      </trkpt>
      <trkpt lat="47.19558" lon="5.5582">
        <ele>338</ele>
        <time>2012-01-26T16:08:05Z</time>
      </trkpt>
      <trkpt lat="47.19565" lon="5.55842">
        <ele>336</ele>
        <time>2012-01-26T16:08:21Z</time>
      </trkpt>
      <trkpt lat="47.19576" lon="5.55853">
        <ele>335</ele>
        <time>2012-01-26T16:08:43Z</time>
      </trkpt>
      <trkpt lat="47.19583" lon="5.5586">
        <ele>335</ele>
        <time>2012-01-26T16:09:20Z</time>
      </trkpt>
      <trkpt lat="47.19572" lon="5.55867">
        <ele>334</ele>
        <time>2012-01-26T16:10:46Z</time>
      </trkpt>
      <trkpt lat="47.19561" lon="5.55873">
        <ele>337</ele>
        <time>2012-01-26T16:11:01Z</time>
      </trkpt>
      <trkpt lat="47.19549" lon="5.55878">
        <ele>339</ele>
        <time>2012-01-26T16:11:17Z</time>
      </trkpt>
      <trkpt lat="47.19533" lon="5.55881">
        <ele>343</ele>
        <time>2012-01-26T16:11:34Z</time>
      </trkpt>
      <trkpt lat="47.1952" lon="5.55862">
        <ele>345</ele>
        <time>2012-01-26T16:11:53Z</time>
      </trkpt>
      <trkpt lat="47.19508" lon="5.55847">
        <ele>347</ele>
        <time>2012-01-26T16:12:08Z</time>
      </trkpt>
      <trkpt lat="47.19489" lon="5.55836">
        <ele>351</ele>
        <time>2012-01-26T16:12:30Z</time>
      </trkpt>
      <trkpt lat="47.19478" lon="5.55836">
        <ele>352</ele>
        <time>2012-01-26T16:12:42Z</time>
      </trkpt>
      <trkpt lat="47.19464" lon="5.55849">
        <ele>354</ele>
        <time>2012-01-26T16:12:58Z</time>
      </trkpt>
      <trkpt lat="47.19453" lon="5.55864">
        <ele>358</ele>
        <time>2012-01-26T16:13:20Z</time>
      </trkpt>
      <trkpt lat="47.19438" lon="5.55885">
        <ele>361</ele>
        <time>2012-01-26T16:13:44Z</time>
      </trkpt>
      <trkpt lat="47.19431" lon="5.55887">
        <ele>361</ele>
        <time>2012-01-26T16:13:52Z</time>
      </trkpt>
      <trkpt lat="47.19412" lon="5.55883">
        <ele>364</ele>
        <time>2012-01-26T16:14:12Z</time>
      </trkpt>
      <trkpt lat="47.19397" lon="5.55886">
        <ele>365</ele>
        <time>2012-01-26T16:14:28Z</time>
      </trkpt>
      <trkpt lat="47.19379" lon="5.5589">
        <ele>367</ele>
        <time>2012-01-26T16:14:47Z</time>
      </trkpt>
      <trkpt lat="47.19378" lon="5.5589">
        <ele>367</ele>
        <time>2012-01-26T16:14:48Z</time>
      </trkpt>
      <trkpt lat="47.19363" lon="5.55893">
        <ele>368</ele>
        <time>2012-01-26T16:15:02Z</time>
      </trkpt>
      <trkpt lat="47.19347" lon="5.55901">
        <ele>369</ele>
        <time>2012-01-26T16:15:31Z</time>
      </trkpt>
      <trkpt lat="47.19332" lon="5.55916">
        <ele>369</ele>
        <time>2012-01-26T16:15:46Z</time>
      </trkpt>
      <trkpt lat="47.19327" lon="5.55918">
        <ele>369</ele>
        <time>2012-01-26T16:15:51Z</time>
      </trkpt>
      <trkpt lat="47.19324" lon="5.55921">
        <ele>370</ele>
        <time>2012-01-26T16:15:53Z</time>
      </trkpt>
      <trkpt lat="47.19319" lon="5.55926">
        <ele>369</ele>
        <time>2012-01-26T16:15:59Z</time>
      </trkpt>
      <trkpt lat="47.19313" lon="5.55932">
        <ele>369</ele>
        <time>2012-01-26T16:16:07Z</time>
      </trkpt>
      <trkpt lat="47.19303" lon="5.55933">
        <ele>369</ele>
        <time>2012-01-26T16:16:13Z</time>
      </trkpt>
      <trkpt lat="47.1929" lon="5.55947">
        <ele>370</ele>
        <time>2012-01-26T16:16:28Z</time>
      </trkpt>
      <trkpt lat="47.19276" lon="5.55966">
        <ele>371</ele>
        <time>2012-01-26T16:16:45Z</time>
      </trkpt>
      <trkpt lat="47.19258" lon="5.55981">
        <ele>373</ele>
        <time>2012-01-26T16:17:04Z</time>
      </trkpt>
      <trkpt lat="47.19235" lon="5.56005">
        <ele>375</ele>
        <time>2012-01-26T16:17:25Z</time>
      </trkpt>
      <trkpt lat="47.19212" lon="5.56024">
        <ele>376</ele>
        <time>2012-01-26T16:17:48Z</time>
      </trkpt>
      <trkpt lat="47.1919" lon="5.56051">
        <ele>379</ele>
        <time>2012-01-26T16:18:14Z</time>
      </trkpt>
      <trkpt lat="47.19171" lon="5.56092">
        <ele>381</ele>
        <time>2012-01-26T16:18:41Z</time>
      </trkpt>
      <trkpt lat="47.19173" lon="5.56109">
        <ele>382</ele>
        <time>2012-01-26T16:18:54Z</time>
      </trkpt>
      <trkpt lat="47.19174" lon="5.56121">
        <ele>382</ele>
        <time>2012-01-26T16:19:01Z</time>
      </trkpt>
      <trkpt lat="47.19168" lon="5.56155">
        <ele>383</ele>
        <time>2012-01-26T16:19:19Z</time>
      </trkpt>
      <trkpt lat="47.19168" lon="5.5616">
        <ele>382</ele>
        <time>2012-01-26T16:19:22Z</time>
      </trkpt>
      <trkpt lat="47.1917" lon="5.56179">
        <ele>382</ele>
        <time>2012-01-26T16:19:32Z</time>
      </trkpt>
      <trkpt lat="47.19155" lon="5.56206">
        <ele>384</ele>
        <time>2012-01-26T16:19:54Z</time>
      </trkpt>
      <trkpt lat="47.19136" lon="5.56228">
        <ele>383</ele>
        <time>2012-01-26T16:20:16Z</time>
      </trkpt>
      <trkpt lat="47.19115" lon="5.56268">
        <ele>382</ele>
        <time>2012-01-26T16:20:41Z</time>
      </trkpt>
      <trkpt lat="47.19105" lon="5.56284">
        <ele>382</ele>
        <time>2012-01-26T16:20:51Z</time>
      </trkpt>
      <trkpt lat="47.19099" lon="5.56315">
        <ele>381</ele>
        <time>2012-01-26T16:21:13Z</time>
      </trkpt>
      <trkpt lat="47.19104" lon="5.56342">
        <ele>381</ele>
        <time>2012-01-26T16:21:31Z</time>
      </trkpt>
      <trkpt lat="47.19103" lon="5.56369">
        <ele>382</ele>
        <time>2012-01-26T16:21:49Z</time>
      </trkpt>
      <trkpt lat="47.191" lon="5.56415">
        <ele>382</ele>
        <time>2012-01-26T16:22:16Z</time>
      </trkpt>
      <trkpt lat="47.1909" lon="5.5647">
        <ele>382</ele>
        <time>2012-01-26T16:22:45Z</time>
      </trkpt>
      <trkpt lat="47.1909" lon="5.56473">
        <ele>382</ele>
        <time>2012-01-26T16:22:46Z</time>
      </trkpt>
      <trkpt lat="47.19077" lon="5.56504">
        <ele>382</ele>
        <time>2012-01-26T16:23:07Z</time>
      </trkpt>
      <trkpt lat="47.19071" lon="5.56543">
        <ele>384</ele>
        <time>2012-01-26T16:23:35Z</time>
      </trkpt>
      <trkpt lat="47.19057" lon="5.56585">
        <ele>385</ele>
        <time>2012-01-26T16:24:05Z</time>
      </trkpt>
      <trkpt lat="47.1904" lon="5.56612">
        <ele>386</ele>
        <time>2012-01-26T16:24:29Z</time>
      </trkpt>
      <trkpt lat="47.19023" lon="5.5664">
        <ele>387</ele>
        <time>2012-01-26T16:24:53Z</time>
      </trkpt>
      <trkpt lat="47.19014" lon="5.56646">
        <ele>387</ele>
        <time>2012-01-26T16:25:02Z</time>
      </trkpt>
      <trkpt lat="47.18988" lon="5.56667">
        <ele>387</ele>
        <time>2012-01-26T16:25:28Z</time>
      </trkpt>
      <trkpt lat="47.18968" lon="5.56679">
        <ele>387</ele>
        <time>2012-01-26T16:25:52Z</time>
      </trkpt>
      <trkpt lat="47.18964" lon="5.56688">
        <ele>388</ele>
        <time>2012-01-26T16:26:18Z</time>
      </trkpt>
      <trkpt lat="47.18959" lon="5.56674">
        <ele>387</ele>
        <time>2012-01-26T16:27:18Z</time>
      </trkpt>
      <trkpt lat="47.18947" lon="5.56645">
        <ele>385</ele>
        <time>2012-01-26T16:27:40Z</time>
      </trkpt>
      <trkpt lat="47.18935" lon="5.56607">
        <ele>382</ele>
        <time>2012-01-26T16:28:06Z</time>
      </trkpt>
      <trkpt lat="47.18922" lon="5.56582">
        <ele>380</ele>
        <time>2012-01-26T16:28:26Z</time>
      </trkpt>
      <trkpt lat="47.1891" lon="5.56553">
        <ele>379</ele>
        <time>2012-01-26T16:28:46Z</time>
      </trkpt>
      <trkpt lat="47.18894" lon="5.56525">
        <ele>377</ele>
        <time>2012-01-26T16:29:07Z</time>
      </trkpt>
      <trkpt lat="47.18876" lon="5.56489">
        <ele>376</ele>
        <time>2012-01-26T16:29:33Z</time>
      </trkpt>
      <trkpt lat="47.18863" lon="5.56459">
        <ele>375</ele>
        <time>2012-01-26T16:29:53Z</time>
      </trkpt>
      <trkpt lat="47.18859" lon="5.56442">
        <ele>373</ele>
        <time>2012-01-26T16:30:03Z</time>
      </trkpt>
      <trkpt lat="47.18841" lon="5.56404">
        <ele>370</ele>
        <time>2012-01-26T16:30:26Z</time>
      </trkpt>
      <trkpt lat="47.18825" lon="5.5638">
        <ele>368</ele>
        <time>2012-01-26T16:30:43Z</time>
      </trkpt>
      <trkpt lat="47.18809" lon="5.56364">
        <ele>365</ele>
        <time>2012-01-26T16:30:59Z</time>
      </trkpt>
      <trkpt lat="47.18794" lon="5.56352">
        <ele>362</ele>
        <time>2012-01-26T16:31:16Z</time>
      </trkpt>
      <trkpt lat="47.18778" lon="5.56339">
        <ele>361</ele>
        <time>2012-01-26T16:31:30Z</time>
      </trkpt>
      <trkpt lat="47.18766" lon="5.56319">
        <ele>358</ele>
        <time>2012-01-26T16:31:48Z</time>
      </trkpt>
      <trkpt lat="47.18764" lon="5.56299">
        <ele>357</ele>
        <time>2012-01-26T16:32:05Z</time>
      </trkpt>
      <trkpt lat="47.1875" lon="5.56283">
        <ele>357</ele>
        <time>2012-01-26T16:32:27Z</time>
      </trkpt>
      <trkpt lat="47.18733" lon="5.56271">
        <ele>356</ele>
        <time>2012-01-26T16:32:49Z</time>
      </trkpt>
      <trkpt lat="47.18717" lon="5.56254">
        <ele>356</ele>
        <time>2012-01-26T16:33:06Z</time>
      </trkpt>
      <trkpt lat="47.18697" lon="5.56222">
        <ele>356</ele>
        <time>2012-01-26T16:33:32Z</time>
      </trkpt>
      <trkpt lat="47.18689" lon="5.56199">
        <ele>355</ele>
        <time>2012-01-26T16:33:48Z</time>
      </trkpt>
      <trkpt lat="47.18673" lon="5.56193">
        <ele>354</ele>
        <time>2012-01-26T16:34:09Z</time>
      </trkpt>
      <trkpt lat="47.18666" lon="5.56186">
        <ele>354</ele>
        <time>2012-01-26T16:34:32Z</time>
      </trkpt>
      <trkpt lat="47.18659" lon="5.56189">
        <ele>354</ele>
        <time>2012-01-26T16:34:42Z</time>
      </trkpt>
      <trkpt lat="47.18645" lon="5.56182">
        <ele>355</ele>
        <time>2012-01-26T16:34:54Z</time>
      </trkpt>
      <trkpt lat="47.18627" lon="5.56158">
        <ele>358</ele>
        <time>2012-01-26T16:35:16Z</time>
      </trkpt>
      <trkpt lat="47.1862" lon="5.56153">
        <ele>361</ele>
        <time>2012-01-26T16:35:31Z</time>
      </trkpt>
      <trkpt lat="47.18617" lon="5.56144">
        <ele>364</ele>
        <time>2012-01-26T16:35:51Z</time>
      </trkpt>
      <trkpt lat="47.18601" lon="5.56133">
        <ele>367</ele>
        <time>2012-01-26T16:36:14Z</time>
      </trkpt>
      <trkpt lat="47.18589" lon="5.56113">
        <ele>368</ele>
        <time>2012-01-26T16:36:32Z</time>
      </trkpt>
      <trkpt lat="47.18578" lon="5.56095">
        <ele>371</ele>
        <time>2012-01-26T16:36:58Z</time>
      </trkpt>
      <trkpt lat="47.1857" lon="5.56075">
        <ele>372</ele>
        <time>2012-01-26T16:37:13Z</time>
      </trkpt>
      <trkpt lat="47.18553" lon="5.56062">
        <ele>374</ele>
        <time>2012-01-26T16:37:32Z</time>
      </trkpt>
      <trkpt lat="47.18532" lon="5.56043">
        <ele>376</ele>
        <time>2012-01-26T16:37:52Z</time>
      </trkpt>
      <trkpt lat="47.1851" lon="5.56023">
        <ele>376</ele>
        <time>2012-01-26T16:38:16Z</time>
      </trkpt>
      <trkpt lat="47.18498" lon="5.56004">
        <ele>377</ele>
        <time>2012-01-26T16:38:33Z</time>
      </trkpt>
      <trkpt lat="47.1848" lon="5.5598">
        <ele>376</ele>
        <time>2012-01-26T16:38:52Z</time>
      </trkpt>
      <trkpt lat="47.18472" lon="5.5597">
        <ele>376</ele>
        <time>2012-01-26T16:39:01Z</time>
      </trkpt>
      <trkpt lat="47.18455" lon="5.5595">
        <ele>376</ele>
        <time>2012-01-26T16:39:17Z</time>
      </trkpt>
      <trkpt lat="47.18447" lon="5.55941">
        <ele>376</ele>
        <time>2012-01-26T16:39:25Z</time>
      </trkpt>
      <trkpt lat="47.18446" lon="5.55938">
        <ele>375</ele>
        <time>2012-01-26T16:39:27Z</time>
      </trkpt>
      <trkpt lat="47.18431" lon="5.55913">
        <ele>375</ele>
        <time>2012-01-26T16:39:43Z</time>
      </trkpt>
      <trkpt lat="47.18417" lon="5.55901">
        <ele>374</ele>
        <time>2012-01-26T16:40:02Z</time>
      </trkpt>
      <trkpt lat="47.18405" lon="5.55906">
        <ele>374</ele>
        <time>2012-01-26T16:40:22Z</time>
      </trkpt>
      <trkpt lat="47.18409" lon="5.55899">
        <ele>375</ele>
        <time>2012-01-26T16:41:19Z</time>
      </trkpt>
      <trkpt lat="47.18409" lon="5.5588">
        <ele>375</ele>
        <time>2012-01-26T16:41:48Z</time>
      </trkpt>
      <trkpt lat="47.18408" lon="5.55869">
        <ele>375</ele>
        <time>2012-01-26T16:42:23Z</time>
      </trkpt>
      <trkpt lat="47.18411" lon="5.55897">
        <ele>376</ele>
        <time>2012-01-26T16:42:44Z</time>
      </trkpt>
      <trkpt lat="47.18409" lon="5.55913">
        <ele>376</ele>
        <time>2012-01-26T16:42:52Z</time>
      </trkpt>
      <trkpt lat="47.18414" lon="5.55937">
        <ele>376</ele>
        <time>2012-01-26T16:43:04Z</time>
      </trkpt>
      <trkpt lat="47.18412" lon="5.55953">
        <ele>376</ele>
        <time>2012-01-26T16:43:14Z</time>
      </trkpt>
      <trkpt lat="47.18409" lon="5.55978">
        <ele>376</ele>
        <time>2012-01-26T16:43:28Z</time>
      </trkpt>
      <trkpt lat="47.18392" lon="5.56002">
        <ele>375</ele>
        <time>2012-01-26T16:43:42Z</time>
      </trkpt>
      <trkpt lat="47.18374" lon="5.56024">
        <ele>374</ele>
        <time>2012-01-26T16:43:56Z</time>
      </trkpt>
      <trkpt lat="47.18364" lon="5.56043">
        <ele>372</ele>
        <time>2012-01-26T16:44:06Z</time>
      </trkpt>
      <trkpt lat="47.18344" lon="5.56064">
        <ele>371</ele>
        <time>2012-01-26T16:44:24Z</time>
      </trkpt>
      <trkpt lat="47.18337" lon="5.56073">
        <ele>371</ele>
        <time>2012-01-26T16:44:31Z</time>
      </trkpt>
      <trkpt lat="47.18331" lon="5.5609">
        <ele>370</ele>
        <time>2012-01-26T16:44:41Z</time>
      </trkpt>
      <trkpt lat="47.18329" lon="5.56092">
        <ele>370</ele>
        <time>2012-01-26T16:44:44Z</time>
      </trkpt>
      <trkpt lat="47.18324" lon="5.56114">
        <ele>370</ele>
        <time>2012-01-26T16:44:56Z</time>
      </trkpt>
      <trkpt lat="47.18313" lon="5.56134">
        <ele>370</ele>
        <time>2012-01-26T16:45:10Z</time>
      </trkpt>
      <trkpt lat="47.18312" lon="5.56135">
        <ele>370</ele>
        <time>2012-01-26T16:45:11Z</time>
      </trkpt>
      <trkpt lat="47.18304" lon="5.56149">
        <ele>370</ele>
        <time>2012-01-26T16:45:25Z</time>
      </trkpt>
      <trkpt lat="47.18295" lon="5.56165">
        <ele>370</ele>
        <time>2012-01-26T16:45:42Z</time>
      </trkpt>
      <trkpt lat="47.18267" lon="5.56194">
        <ele>370</ele>
        <time>2012-01-26T16:46:08Z</time>
      </trkpt>
      <trkpt lat="47.18246" lon="5.56211">
        <ele>368</ele>
        <time>2012-01-26T16:46:26Z</time>
      </trkpt>
      <trkpt lat="47.18224" lon="5.56242">
        <ele>366</ele>
        <time>2012-01-26T16:46:49Z</time>
      </trkpt>
      <trkpt lat="47.18208" lon="5.5625">
        <ele>364</ele>
        <time>2012-01-26T16:47:07Z</time>
      </trkpt>
      <trkpt lat="47.1819" lon="5.56258">
        <ele>364</ele>
        <time>2012-01-26T16:47:27Z</time>
      </trkpt>
      <trkpt lat="47.18189" lon="5.5626">
        <ele>364</ele>
        <time>2012-01-26T16:47:30Z</time>
      </trkpt>
      <trkpt lat="47.18178" lon="5.56262">
        <ele>364</ele>
        <time>2012-01-26T16:47:38Z</time>
      </trkpt>
      <trkpt lat="47.18162" lon="5.56277">
        <ele>364</ele>
        <time>2012-01-26T16:47:51Z</time>
      </trkpt>
      <trkpt lat="47.18141" lon="5.56289">
        <ele>364</ele>
        <time>2012-01-26T16:48:10Z</time>
      </trkpt>
      <trkpt lat="47.18128" lon="5.56308">
        <ele>365</ele>
        <time>2012-01-26T16:48:33Z</time>
      </trkpt>
      <trkpt lat="47.18119" lon="5.56309">
        <ele>366</ele>
        <time>2012-01-26T16:48:39Z</time>
      </trkpt>
      <trkpt lat="47.18112" lon="5.56307">
        <ele>366</ele>
        <time>2012-01-26T16:48:48Z</time>
      </trkpt>
      <trkpt lat="47.18098" lon="5.56288">
        <ele>366</ele>
        <time>2012-01-26T16:49:09Z</time>
      </trkpt>
      <trkpt lat="47.18084" lon="5.56273">
        <ele>366</ele>
        <time>2012-01-26T16:49:26Z</time>
      </trkpt>
      <trkpt lat="47.18069" lon="5.56253">
        <ele>365</ele>
        <time>2012-01-26T16:49:46Z</time>
      </trkpt>
      <trkpt lat="47.18056" lon="5.56239">
        <ele>364</ele>
        <time>2012-01-26T16:50:11Z</time>
      </trkpt>
      <trkpt lat="47.18062" lon="5.56237">
        <ele>365</ele>
        <time>2012-01-26T16:50:37Z</time>
      </trkpt>
      <trkpt lat="47.18054" lon="5.56232">
        <ele>362</ele>
        <time>2012-01-26T16:51:17Z</time>
      </trkpt>
      <trkpt lat="47.18032" lon="5.56214">
        <ele>359</ele>
        <time>2012-01-26T16:51:40Z</time>
      </trkpt>
      <trkpt lat="47.18009" lon="5.56186">
        <ele>357</ele>
        <time>2012-01-26T16:52:01Z</time>
      </trkpt>
      <trkpt lat="47.17995" lon="5.56167">
        <ele>356</ele>
        <time>2012-01-26T16:52:39Z</time>
      </trkpt>
      <trkpt lat="47.17984" lon="5.56153">
        <ele>353</ele>
        <time>2012-01-26T16:52:56Z</time>
      </trkpt>
      <trkpt lat="47.17975" lon="5.56139">
        <ele>350</ele>
        <time>2012-01-26T16:53:11Z</time>
      </trkpt>
      <trkpt lat="47.17966" lon="5.56127">
        <ele>347</ele>
        <time>2012-01-26T16:53:34Z</time>
      </trkpt>
      <trkpt lat="47.1795" lon="5.56101">
        <ele>346</ele>
        <time>2012-01-26T16:54:07Z</time>
      </trkpt>
      <trkpt lat="47.17946" lon="5.56097">
        <ele>349</ele>
        <time>2012-01-26T16:54:21Z</time>
      </trkpt>
      <trkpt lat="47.17936" lon="5.56085">
        <ele>352</ele>
        <time>2012-01-26T16:54:37Z</time>
      </trkpt>
      <trkpt lat="47.17918" lon="5.56071">
        <ele>352</ele>
        <time>2012-01-26T16:55:00Z</time>
      </trkpt>
      <trkpt lat="47.17892" lon="5.56037">
        <ele>350</ele>
        <time>2012-01-26T16:55:28Z</time>
      </trkpt>
      <trkpt lat="47.17876" lon="5.56011">
        <ele>350</ele>
        <time>2012-01-26T16:55:48Z</time>
      </trkpt>
      <trkpt lat="47.17843" lon="5.5598">
        <ele>348</ele>
        <time>2012-01-26T16:56:18Z</time>
      </trkpt>
      <trkpt lat="47.17827" lon="5.55958">
        <ele>345</ele>
        <time>2012-01-26T16:56:39Z</time>
      </trkpt>
      <trkpt lat="47.17805" lon="5.55946">
        <ele>342</ele>
        <time>2012-01-26T16:57:04Z</time>
      </trkpt>
      <trkpt lat="47.17786" lon="5.55989">
        <ele>345</ele>
        <time>2012-01-26T16:57:32Z</time>
      </trkpt>
      <trkpt lat="47.17762" lon="5.56036">
        <ele>347</ele>
        <time>2012-01-26T16:58:13Z</time>
      </trkpt>
      <trkpt lat="47.17746" lon="5.56073">
        <ele>349</ele>
        <time>2012-01-26T16:58:48Z</time>
      </trkpt>
      <trkpt lat="47.17738" lon="5.56085">
        <ele>352</ele>
        <time>2012-01-26T16:59:05Z</time>
      </trkpt>
      <trkpt lat="47.17726" lon="5.56102">
        <ele>355</ele>
        <time>2012-01-26T16:59:30Z</time>
      </trkpt>
      <trkpt lat="47.17716" lon="5.56127">
        <ele>358</ele>
        <time>2012-01-26T16:59:59Z</time>
      </trkpt>
      <trkpt lat="47.17703" lon="5.5614">
        <ele>362</ele>
        <time>2012-01-26T17:00:26Z</time>
      </trkpt>
      <trkpt lat="47.17695" lon="5.56153">
        <ele>365</ele>
        <time>2012-01-26T17:00:58Z</time>
      </trkpt>
      <trkpt lat="47.17684" lon="5.56171">
        <ele>368</ele>
        <time>2012-01-26T17:01:16Z</time>
      </trkpt>
      <trkpt lat="47.1768" lon="5.56174">
        <ele>369</ele>
        <time>2012-01-26T17:01:20Z</time>
      </trkpt>
      <trkpt lat="47.17674" lon="5.56192">
        <ele>372</ele>
        <time>2012-01-26T17:01:45Z</time>
      </trkpt>
      <trkpt lat="47.17662" lon="5.56209">
        <ele>374</ele>
        <time>2012-01-26T17:02:08Z</time>
      </trkpt>
      <trkpt lat="47.17647" lon="5.56246">
        <ele>374</ele>
        <time>2012-01-26T17:02:32Z</time>
      </trkpt>
      <trkpt lat="47.17634" lon="5.56275">
        <ele>371</ele>
        <time>2012-01-26T17:02:52Z</time>
      </trkpt>
      <trkpt lat="47.17621" lon="5.56296">
        <ele>368</ele>
        <time>2012-01-26T17:03:11Z</time>
      </trkpt>
      <trkpt lat="47.1761" lon="5.56317">
        <ele>365</ele>
        <time>2012-01-26T17:03:29Z</time>
      </trkpt>
      <trkpt lat="47.17601" lon="5.56335">
        <ele>362</ele>
        <time>2012-01-26T17:03:43Z</time>
      </trkpt>
      <trkpt lat="47.17592" lon="5.5635">
        <ele>359</ele>
        <time>2012-01-26T17:03:55Z</time>
      </trkpt>
      <trkpt lat="47.17583" lon="5.56366">
        <ele>356</ele>
        <time>2012-01-26T17:04:10Z</time>
      </trkpt>
      <trkpt lat="47.17577" lon="5.56382">
        <ele>353</ele>
        <time>2012-01-26T17:04:23Z</time>
      </trkpt>
      <trkpt lat="47.17573" lon="5.56386">
        <ele>350</ele>
        <time>2012-01-26T17:04:35Z</time>
      </trkpt>
      <trkpt lat="47.17567" lon="5.56395">
        <ele>347</ele>
        <time>2012-01-26T17:04:52Z</time>
      </trkpt>
      <trkpt lat="47.17563" lon="5.56405">
        <ele>344</ele>
        <time>2012-01-26T17:05:07Z</time>
      </trkpt>
      <trkpt lat="47.17561" lon="5.56405">
        <ele>340</ele>
        <time>2012-01-26T17:05:25Z</time>
      </trkpt>
      <trkpt lat="47.17553" lon="5.56423">
        <ele>339</ele>
        <time>2012-01-26T17:05:48Z</time>
      </trkpt>
      <trkpt lat="47.17559" lon="5.5642">
        <ele>336</ele>
        <time>2012-01-26T17:06:37Z</time>
      </trkpt>
      <trkpt lat="47.17559" lon="5.5642">
        <ele>332</ele>
        <time>2012-01-26T17:07:07Z</time>
      </trkpt>
      <trkpt lat="47.17564" lon="5.56446">
        <ele>329</ele>
        <time>2012-01-26T17:09:16Z</time>
      </trkpt>
      <trkpt lat="47.17559" lon="5.56462">
        <ele>326</ele>
        <time>2012-01-26T17:09:56Z</time>
      </trkpt>
      <trkpt lat="47.17567" lon="5.56455">
        <ele>327</ele>
        <time>2012-01-26T17:10:17Z</time>
      </trkpt>
      <trkpt lat="47.17566" lon="5.56449">
        <ele>326</ele>
        <time>2012-01-26T17:10:48Z</time>
      </trkpt>
      <trkpt lat="47.17555" lon="5.56441">
        <ele>325</ele>
        <time>2012-01-26T17:11:00Z</time>
      </trkpt>
      <trkpt lat="47.17545" lon="5.56433">
        <ele>324</ele>
        <time>2012-01-26T17:11:14Z</time>
      </trkpt>
      <trkpt lat="47.17533" lon="5.56418">
        <ele>322</ele>
        <time>2012-01-26T17:11:34Z</time>
      </trkpt>
      <trkpt lat="47.17514" lon="5.56418">
        <ele>319</ele>
        <time>2012-01-26T17:11:49Z</time>
      </trkpt>
      <trkpt lat="47.17502" lon="5.56433">
        <ele>316</ele>
        <time>2012-01-26T17:12:05Z</time>
      </trkpt>
      <trkpt lat="47.17502" lon="5.56463">
        <ele>313</ele>
        <time>2012-01-26T17:12:23Z</time>
      </trkpt>
      <trkpt lat="47.17485" lon="5.56491">
        <ele>311</ele>
        <time>2012-01-26T17:12:41Z</time>
      </trkpt>
      <trkpt lat="47.17472" lon="5.56505">
        <ele>310</ele>
        <time>2012-01-26T17:12:58Z</time>
      </trkpt>
      <trkpt lat="47.17456" lon="5.56515">
        <ele>309</ele>
        <time>2012-01-26T17:13:14Z</time>
      </trkpt>
      <trkpt lat="47.17434" lon="5.56526">
        <ele>307</ele>
        <time>2012-01-26T17:13:32Z</time>
      </trkpt>
      <trkpt lat="47.17426" lon="5.56531">
        <ele>307</ele>
        <time>2012-01-26T17:13:39Z</time>
      </trkpt>
      <trkpt lat="47.17405" lon="5.56539">
        <ele>305</ele>
        <time>2012-01-26T17:13:56Z</time>
      </trkpt>
      <trkpt lat="47.1739" lon="5.56542">
        <ele>303</ele>
        <time>2012-01-26T17:14:10Z</time>
      </trkpt>
      <trkpt lat="47.17368" lon="5.56544">
        <ele>302</ele>
        <time>2012-01-26T17:14:28Z</time>
      </trkpt>
      <trkpt lat="47.17367" lon="5.56544">
        <ele>302</ele>
        <time>2012-01-26T17:14:29Z</time>
      </trkpt>
      <trkpt lat="47.1735" lon="5.56544">
        <ele>301</ele>
        <time>2012-01-26T17:14:43Z</time>
      </trkpt>
      <trkpt lat="47.17331" lon="5.56545">
        <ele>298</ele>
        <time>2012-01-26T17:15:01Z</time>
      </trkpt>
      <trkpt lat="47.17309" lon="5.56557">
        <ele>296</ele>
        <time>2012-01-26T17:15:21Z</time>
      </trkpt>
      <trkpt lat="47.1729" lon="5.56559">
        <ele>295</ele>
        <time>2012-01-26T17:15:37Z</time>
      </trkpt>
      <trkpt lat="47.17275" lon="5.56552">
        <ele>294</ele>
        <time>2012-01-26T17:15:50Z</time>
      </trkpt>
      <trkpt lat="47.17273" lon="5.56549">
        <ele>293</ele>
        <time>2012-01-26T17:15:52Z</time>
      </trkpt>
      <trkpt lat="47.17269" lon="5.56546">
        <ele>294</ele>
        <time>2012-01-26T17:15:56Z</time>
      </trkpt>
      <trkpt lat="47.17255" lon="5.56537">
        <ele>293</ele>
        <time>2012-01-26T17:16:09Z</time>
      </trkpt>
      <trkpt lat="47.17249" lon="5.5653">
        <ele>292</ele>
        <time>2012-01-26T17:16:15Z</time>
      </trkpt>
      <trkpt lat="47.17244" lon="5.56524">
        <ele>291</ele>
        <time>2012-01-26T17:16:21Z</time>
      </trkpt>
      <trkpt lat="47.17237" lon="5.56519">
        <ele>291</ele>
        <time>2012-01-26T17:16:26Z</time>
      </trkpt>
      <trkpt lat="47.17227" lon="5.56512">
        <ele>290</ele>
        <time>2012-01-26T17:16:33Z</time>
      </trkpt>
      <trkpt lat="47.17213" lon="5.56508">
        <ele>289</ele>
        <time>2012-01-26T17:16:45Z</time>
      </trkpt>
      <trkpt lat="47.17203" lon="5.56506">
        <ele>289</ele>
        <time>2012-01-26T17:16:54Z</time>
      </trkpt>
      <trkpt lat="47.17198" lon="5.56505">
        <ele>289</ele>
        <time>2012-01-26T17:16:58Z</time>
      </trkpt>
      <trkpt lat="47.17178" lon="5.56496">
        <ele>287</ele>
        <time>2012-01-26T17:17:14Z</time>
      </trkpt>
      <trkpt lat="47.17155" lon="5.56485">
        <ele>285</ele>
        <time>2012-01-26T17:17:33Z</time>
      </trkpt>
      <trkpt lat="47.17131" lon="5.56473">
        <ele>283</ele>
        <time>2012-01-26T17:17:51Z</time>
      </trkpt>
      <trkpt lat="47.17104" lon="5.56461">
        <ele>281</ele>
        <time>2012-01-26T17:18:12Z</time>
      </trkpt>
      <trkpt lat="47.17078" lon="5.56448">
        <ele>278</ele>
        <time>2012-01-26T17:18:33Z</time>
      </trkpt>
      <trkpt lat="47.17056" lon="5.56436">
        <ele>276</ele>
        <time>2012-01-26T17:18:51Z</time>
      </trkpt>
      <trkpt lat="47.1705" lon="5.56433">
        <ele>276</ele>
        <time>2012-01-26T17:18:56Z</time>
      </trkpt>
      <trkpt lat="47.17026" lon="5.56424">
        <ele>274</ele>
        <time>2012-01-26T17:19:14Z</time>
      </trkpt>
      <trkpt lat="47.17014" lon="5.56421">
        <ele>273</ele>
        <time>2012-01-26T17:19:25Z</time>
      </trkpt>
      <trkpt lat="47.17004" lon="5.56418">
        <ele>272</ele>
        <time>2012-01-26T17:19:33Z</time>
      </trkpt>
      <trkpt lat="47.16997" lon="5.56415">
        <ele>271</ele>
        <time>2012-01-26T17:19:39Z</time>
      </trkpt>
      <trkpt lat="47.16974" lon="5.56422">
        <ele>268</ele>
        <time>2012-01-26T17:19:59Z</time>
      </trkpt>
      <trkpt lat="47.16953" lon="5.56436">
        <ele>264</ele>
        <time>2012-01-26T17:20:17Z</time>
      </trkpt>
      <trkpt lat="47.16949" lon="5.56439">
        <ele>264</ele>
        <time>2012-01-26T17:20:20Z</time>
      </trkpt>
      <trkpt lat="47.16934" lon="5.56446">
        <ele>262</ele>
        <time>2012-01-26T17:20:35Z</time>
      </trkpt>
      <trkpt lat="47.16917" lon="5.56453">
        <ele>259</ele>
        <time>2012-01-26T17:20:49Z</time>
      </trkpt>
      <trkpt lat="47.16902" lon="5.56448">
        <ele>256</ele>
        <time>2012-01-26T17:21:05Z</time>
      </trkpt>
      <trkpt lat="47.16887" lon="5.56452">
        <ele>254</ele>
        <time>2012-01-26T17:21:16Z</time>
      </trkpt>
      <trkpt lat="47.16874" lon="5.56454">
        <ele>252</ele>
        <time>2012-01-26T17:21:28Z</time>
      </trkpt>
      <trkpt lat="47.16872" lon="5.56454">
        <ele>252</ele>
        <time>2012-01-26T17:21:29Z</time>
      </trkpt>
      <trkpt lat="47.16858" lon="5.56456">
        <ele>251</ele>
        <time>2012-01-26T17:21:41Z</time>
      </trkpt>
      <trkpt lat="47.16842" lon="5.56458">
        <ele>249</ele>
        <time>2012-01-26T17:21:55Z</time>
      </trkpt>
      <trkpt lat="47.16821" lon="5.56462">
        <ele>247</ele>
        <time>2012-01-26T17:22:11Z</time>
      </trkpt>
      <trkpt lat="47.168" lon="5.56466">
        <ele>245</ele>
        <time>2012-01-26T17:22:28Z</time>
      </trkpt>
      <trkpt lat="47.16781" lon="5.56468">
        <ele>243</ele>
        <time>2012-01-26T17:22:45Z</time>
      </trkpt>
      <trkpt lat="47.16757" lon="5.56481">
        <ele>241</ele>
        <time>2012-01-26T17:23:06Z</time>
      </trkpt>
      <trkpt lat="47.16742" lon="5.56495">
        <ele>240</ele>
        <time>2012-01-26T17:23:19Z</time>
      </trkpt>
      <trkpt lat="47.16726" lon="5.56515">
        <ele>239</ele>
        <time>2012-01-26T17:23:36Z</time>
      </trkpt>
      <trkpt lat="47.16712" lon="5.56533">
        <ele>238</ele>
        <time>2012-01-26T17:23:51Z</time>
      </trkpt>
      <trkpt lat="47.16702" lon="5.56547">
        <ele>238</ele>
        <time>2012-01-26T17:24:02Z</time>
      </trkpt>
      <trkpt lat="47.16688" lon="5.56556">
        <ele>237</ele>
        <time>2012-01-26T17:24:14Z</time>
      </trkpt>
      <trkpt lat="47.1667" lon="5.56545">
        <ele>236</ele>
        <time>2012-01-26T17:24:32Z</time>
      </trkpt>
      <trkpt lat="47.16663" lon="5.56543">
        <ele>236</ele>
        <time>2012-01-26T17:24:38Z</time>
      </trkpt>
      <trkpt lat="47.1665" lon="5.56538">
        <ele>235</ele>
        <time>2012-01-26T17:24:50Z</time>
      </trkpt>
      <trkpt lat="47.16642" lon="5.56538">
        <ele>235</ele>
        <time>2012-01-26T17:25:01Z</time>
      </trkpt>
      <trkpt lat="47.16618" lon="5.56533">
        <ele>234</ele>
        <time>2012-01-26T17:25:22Z</time>
      </trkpt>
      <trkpt lat="47.16596" lon="5.56532">
        <ele>233</ele>
        <time>2012-01-26T17:25:40Z</time>
      </trkpt>
      <trkpt lat="47.16593" lon="5.56532">
        <ele>232</ele>
        <time>2012-01-26T17:25:42Z</time>
      </trkpt>
      <trkpt lat="47.16582" lon="5.56531">
        <ele>233</ele>
        <time>2012-01-26T17:25:52Z</time>
      </trkpt>
      <trkpt lat="47.16581" lon="5.56528">
        <ele>232</ele>
        <time>2012-01-26T17:25:55Z</time>
      </trkpt>
      <trkpt lat="47.16579" lon="5.56528">
        <ele>232</ele>
        <time>2012-01-26T17:25:57Z</time>
      </trkpt>
      <trkpt lat="47.16566" lon="5.56552">
        <ele>232</ele>
        <time>2012-01-26T17:26:13Z</time>
      </trkpt>
      <trkpt lat="47.16565" lon="5.56558">
        <ele>232</ele>
        <time>2012-01-26T17:26:15Z</time>
      </trkpt>
      <trkpt lat="47.16555" lon="5.56591">
        <ele>231</ele>
        <time>2012-01-26T17:26:35Z</time>
      </trkpt>
      <trkpt lat="47.16552" lon="5.56602">
        <ele>231</ele>
        <time>2012-01-26T17:26:41Z</time>
      </trkpt>
      <trkpt lat="47.16548" lon="5.56622">
        <ele>230</ele>
        <time>2012-01-26T17:26:51Z</time>
      </trkpt>
      <trkpt lat="47.16547" lon="5.56623">
        <ele>230</ele>
        <time>2012-01-26T17:26:52Z</time>
      </trkpt>
      <trkpt lat="47.16539" lon="5.56649">
        <ele>230</ele>
        <time>2012-01-26T17:27:08Z</time>
      </trkpt>
      <trkpt lat="47.16534" lon="5.56667">
        <ele>230</ele>
        <time>2012-01-26T17:27:18Z</time>
      </trkpt>
      <trkpt lat="47.16534" lon="5.56673">
        <ele>231</ele>
        <time>2012-01-26T17:27:21Z</time>
      </trkpt>
      <trkpt lat="47.16534" lon="5.56687">
        <ele>230</ele>
        <time>2012-01-26T17:27:29Z</time>
      </trkpt>
      <trkpt lat="47.16535" lon="5.56693">
        <ele>231</ele>
        <time>2012-01-26T17:27:32Z</time>
      </trkpt>
      <trkpt lat="47.16536" lon="5.56707">
        <ele>231</ele>
        <time>2012-01-26T17:27:40Z</time>
      </trkpt>
      <trkpt lat="47.16534" lon="5.56744">
        <ele>232</ele>
        <time>2012-01-26T17:28:00Z</time>
      </trkpt>
      <trkpt lat="47.16543" lon="5.56759">
        <ele>232</ele>
        <time>2012-01-26T17:28:12Z</time>
      </trkpt>
      <trkpt lat="47.16556" lon="5.56772">
        <ele>232</ele>
        <time>2012-01-26T17:28:24Z</time>
      </trkpt>
      <trkpt lat="47.16567" lon="5.56801">
        <ele>233</ele>
        <time>2012-01-26T17:28:44Z</time>
      </trkpt>
      <trkpt lat="47.16569" lon="5.56809">
        <ele>233</ele>
        <time>2012-01-26T17:29:01Z</time>
      </trkpt>
      <trkpt lat="47.16569" lon="5.56809">
        <ele>233</ele>
        <time>2012-01-26T17:29:20Z</time>
      </trkpt>
    </trkseg>
  </trk>
</gpx>